Redondo — WCD3906 — position and weather

sailwx.info

Track history (hours):
 
Tides and Currents Weather Stations Pressure Air Temp Water Temp Dewpoint Dewpoint Depression Visibility Wind Speed Wind Dir Waves Ship Positions

Redondo

Owner: SAUSE BROS INC, Long Beach, CA. More information available from US FCC via Universal Licensing System and Coast Guard Vessel Documentation Center.

Last reported at 2018-Sep-19 19:03 UTC. Time now 2018-Sep-19 19:11 UTC.
Position N 33°45' W 118°10'.

Length 20 m; draft 2.2 m.

Type: Towing. MMSI: 366760710.

Date/timePositionNaut miles runAvg speedWind from/ knotsBaromVisibWave heightAir tempDewpointWater temp
2018-Sep-19 19:03N 33°45' W 118°10'0 0.0
2018-Sep-19 19:00N 33°45' W 118°10'1 2.5
2018-Sep-19 18:30N 33°44' W 118°08'3 7.1
2018-Sep-19 18:03N 33°45' W 118°12'0 0.5
2018-Sep-19 18:00N 33°45' W 118°12'1 2.8
2018-Sep-19 17:30N 33°44' W 118°11'2 4.6
2018-Sep-19 17:03N 33°44' W 118°08'0 5.5
2018-Sep-19 17:00N 33°45' W 118°09'2 3.8
2018-Sep-19 16:30N 33°46' W 118°11'0 0.1
2018-Sep-19 16:04N 33°46' W 118°11'0 0.0
2018-Sep-19 16:00N 33°46' W 118°11'0 0.0
2018-Sep-19 15:31N 33°46' W 118°11'1 3.1
2018-Sep-19 15:03N 33°45' W 118°10'0 0.0
2018-Sep-19 15:00N 33°45' W 118°10'0 0.0
2018-Sep-19 14:29N 33°45' W 118°10'2 2.2
2018-Sep-19 13:30N 33°45' W 118°12'0 0.0
2018-Sep-19 13:04N 33°45' W 118°12'0 0.1
2018-Sep-19 13:01N 33°45' W 118°12'0 0.0
2018-Sep-19 12:30N 33°45' W 118°12'0 0.1
2018-Sep-19 12:03N 33°45' W 118°12'0 1.0
2018-Sep-19 12:00N 33°45' W 118°12'0 0.1
2018-Sep-19 11:30N 33°45' W 118°12'0 0.0
2018-Sep-19 11:03N 33°45' W 118°12'0 1.1
2018-Sep-19 11:00N 33°45' W 118°12'2 4.2
2018-Sep-19 10:30N 33°45' W 118°10'0 0.4
2018-Sep-19 10:04N 33°45' W 118°10'0 0.0
2018-Sep-19 10:00N 33°45' W 118°10'2 3.5
2018-Sep-19 09:31N 33°44' W 118°11'1 2.8
2018-Sep-19 09:03N 33°45' W 118°12'0 0.0
2018-Sep-19 09:01N 33°45' W 118°12'0 0.0
2018-Sep-19 08:30N 33°45' W 118°12'0 0.0
2018-Sep-19 08:03N 33°45' W 118°12'0 0.0
2018-Sep-19 08:00N 33°45' W 118°12'1 2.5
2018-Sep-19 07:30N 33°44' W 118°11'1 2.8
2018-Sep-19 07:03N 33°45' W 118°10'0 0.0
2018-Sep-19 07:00N 33°45' W 118°10'0 0.0
2018-Sep-19 06:30N 33°45' W 118°10'1 1.4
2018-Sep-19 06:04N 33°45' W 118°10'0 7.6
2018-Sep-19 06:01N 33°44' W 118°11'1 2.8
2018-Sep-19 05:31N 33°45' W 118°12'1 2.1
2018-Sep-19 05:03N 33°44' W 118°12'0 7.6
2018-Sep-19 05:00N 33°44' W 118°11'1 2.8
2018-Sep-19 04:30N 33°45' W 118°10'1 2.4
2018-Sep-19 04:04N 33°44' W 118°08'0 0.0
2018-Sep-19 04:01N 33°44' W 118°08'1 2.6
2018-Sep-19 03:30N 33°45' W 118°10'0 0.4
2018-Sep-19 03:03N 33°45' W 118°10'0 0.0
2018-Sep-19 03:00N 33°45' W 118°10'1 1.9
2018-Sep-19 02:30N 33°46' W 118°11'1 2.1
2018-Sep-19 02:03N 33°45' W 118°10'0 7.4
2018-Sep-19 02:01N 33°44' W 118°11'1 3.0
2018-Sep-19 01:30N 33°45' W 118°12'0 0.0
2018-Sep-19 01:04N 33°45' W 118°12'0 0.0
2018-Sep-19 01:00N 33°45' W 118°12'0 0.1
2018-Sep-19 00:31N 33°45' W 118°12'0 0.1
2018-Sep-19 00:03N 33°45' W 118°12'0 0.0
2018-Sep-19 00:00N 33°45' W 118°12'0 0.0
2018-Sep-18 23:30N 33°45' W 118°12'1 1.7
2018-Sep-18 23:03N 33°44' W 118°12'0 7.2
2018-Sep-18 23:00N 33°44' W 118°12'2 3.7
2018-Sep-18 22:30N 33°46' W 118°11'1 2.3
2018-Sep-18 22:03N 33°45' W 118°10'0 0.9
2018-Sep-18 22:00N 33°45' W 118°10'2 4.8
2018-Sep-18 21:31N 33°44' W 118°12'0 1.1
2018-Sep-18 21:03N 33°45' W 118°12'0 0.1
2018-Sep-18 21:00N 33°45' W 118°12'0 0.0
2018-Sep-18 20:30N 33°45' W 118°12'0 0.0
2018-Sep-18 20:03N 33°45' W 118°12'0 0.1
2018-Sep-18 20:00N 33°45' W 118°12'2 4.4
2018-Sep-18 19:30N 33°45' W 118°10'0 0.0
2018-Sep-18 19:03N 33°45' W 118°10'0 0.0
2018-Sep-18 19:00N 33°45' W 118°10'0 0.0
2018-Sep-18 18:31N 33°45' W 118°10'0 0.0
2018-Sep-18 18:03N 33°45' W 118°10'0 0.0
2018-Sep-18 18:01N 33°45' W 118°10'1 2.1
2018-Sep-18 17:30N 33°44' W 118°08'0 0.0
2018-Sep-18 17:03N 33°44' W 118°08'0 0.0
2018-Sep-18 17:00N 33°44' W 118°08'0 0.0
2018-Sep-18 16:30N 33°44' W 118°08'1 2.6
2018-Sep-18 16:03N 33°45' W 118°10'0 3.7
2018-Sep-18 16:00N 33°45' W 118°10'0 1.0
2018-Sep-18 15:30N 33°45' W 118°10'1 2.3
2018-Sep-18 15:03N 33°46' W 118°11'0 0.1
2018-Sep-18 15:01N 33°46' W 118°11'0 0.0
2018-Sep-18 14:31N 33°46' W 118°11'0 0.0
2018-Sep-18 14:00N 33°46' W 118°11'2 3.0
2018-Sep-18 13:30N 33°45' W 118°12'0 0.1
2018-Sep-18 13:04N 33°45' W 118°12'0 0.0
2018-Sep-18 13:01N 33°45' W 118°12'0 0.0
2018-Sep-18 12:31N 33°45' W 118°12'0 0.0
2018-Sep-18 12:03N 33°45' W 118°12'0 0.1
2018-Sep-18 12:00N 33°45' W 118°12'0 0.0
2018-Sep-18 11:30N 33°45' W 118°12'0 0.1
2018-Sep-18 11:03N 33°45' W 118°12'0 0.1
2018-Sep-18 11:00N 33°45' W 118°12'0 0.1
2018-Sep-18 10:30N 33°45' W 118°12'0 0.0
2018-Sep-18 10:03N 33°45' W 118°12'0 0.0
2018-Sep-18 10:00N 33°45' W 118°12'0 0.0
2018-Sep-18 09:31N 33°45' W 118°12'1 1.9
2018-Sep-18 09:04N 33°44' W 118°12'0 8.6
2018-Sep-18 09:00N 33°44' W 118°11'2 3.0
2018-Sep-18 08:30N 33°45' W 118°10'1 1.3
2018-Sep-18 08:03N 33°45' W 118°10'0 7.4
2018-Sep-18 08:00N 33°45' W 118°10'1 1.9
2018-Sep-18 07:30N 33°45' W 118°10'1 2.3
2018-Sep-18 07:03N 33°44' W 118°08'0 0.1
2018-Sep-18 07:00N 33°44' W 118°08'3 5.7
2018-Sep-18 06:30N 33°44' W 118°12'1 2.1
2018-Sep-18 06:03N 33°45' W 118°12'0 0.0
2018-Sep-18 06:01N 33°45' W 118°12'2 3.7
2018-Sep-18 05:30N 33°44' W 118°10'1 3.4
2018-Sep-18 05:03N 33°44' W 118°08'0 0.0
2018-Sep-18 05:00N 33°44' W 118°08'1 2.6
2018-Sep-18 04:30N 33°45' W 118°10'0 0.1
2018-Sep-18 04:03N 33°45' W 118°10'0 0.1
2018-Sep-18 03:58N 33°45' W 118°10'1 2.0
2018-Sep-18 03:30N 33°46' W 118°11'0 0.2
2018-Sep-18 03:04N 33°46' W 118°11'0 0.0
2018-Sep-18 03:00N 33°46' W 118°11'1 2.5
2018-Sep-18 02:30N 33°44' W 118°11'1 3.2
2018-Sep-18 02:03N 33°45' W 118°12'0 0.0
2018-Sep-18 02:00N 33°45' W 118°12'0 0.4
2018-Sep-18 01:30N 33°44' W 118°12'2 5.1
2018-Sep-18 01:03N 33°45' W 118°10'0 1.5
2018-Sep-18 01:00N 33°45' W 118°10'1 1.2
2018-Sep-18 00:30N 33°45' W 118°10'0 0.0
2018-Sep-18 00:03N 33°45' W 118°10'0 0.0
2018-Sep-18 00:00N 33°45' W 118°10'0 0.2
2018-Sep-17 23:30N 33°45' W 118°10'2 4.6
2018-Sep-17 23:03N 33°45' W 118°12'0 0.1
2018-Sep-17 23:00N 33°45' W 118°12'0 0.0
2018-Sep-17 22:30N 33°45' W 118°12'0 0.0
2018-Sep-17 22:03N 33°45' W 118°12'0 0.3
2018-Sep-17 22:00N 33°45' W 118°12'2 3.3
2018-Sep-17 21:31N 33°46' W 118°11'2 3.4
2018-Sep-17 21:03N 33°45' W 118°09'0 6.6
2018-Sep-17 21:00N 33°45' W 118°09'0 0.6
2018-Sep-17 20:31N 33°45' W 118°09'0 1.1
2018-Sep-17 20:04N 33°45' W 118°10'0 0.0
2018-Sep-17 20:01N 33°45' W 118°10'1 2.7
2018-Sep-17 19:30N 33°44' W 118°11'1 2.7
2018-Sep-17 19:03N 33°45' W 118°12'0 0.0
2018-Sep-17 19:00N 33°45' W 118°12'0 0.0
2018-Sep-17 18:31N 33°45' W 118°12'0 0.0
2018-Sep-17 18:04N 33°45' W 118°12'0 0.0
2018-Sep-17 18:01N 33°45' W 118°12'2 4.2
2018-Sep-17 17:30N 33°45' W 118°10'1 2.7
2018-Sep-17 17:04N 33°44' W 118°08'0 0.0
2018-Sep-17 17:01N 33°44' W 118°08'0 0.0
2018-Sep-17 16:29N 33°44' W 118°08'1 2.1
2018-Sep-17 16:04N 33°45' W 118°09'0 4.0
2018-Sep-17 16:01N 33°45' W 118°10'2 3.5
2018-Sep-17 15:30N 33°44' W 118°12'1 2.0
2018-Sep-17 15:04N 33°45' W 118°12'0 0.0
2018-Sep-17 15:01N 33°45' W 118°12'0 0.0
2018-Sep-17 14:30N 33°45' W 118°12'0 0.0
2018-Sep-17 14:03N 33°45' W 118°12'0 0.1
2018-Sep-17 14:00N 33°45' W 118°12'0 0.0
2018-Sep-17 13:30N 33°45' W 118°12'0 0.0
2018-Sep-17 13:03N 33°45' W 118°12'0 0.1
2018-Sep-17 13:00N 33°45' W 118°12'0 0.0
2018-Sep-17 12:30N 33°45' W 118°12'0 0.0
2018-Sep-17 12:03N 33°45' W 118°12'0 0.0
2018-Sep-17 12:01N 33°45' W 118°12'0 0.0
2018-Sep-17 11:30N 33°45' W 118°12'0 0.0
2018-Sep-17 11:04N 33°45' W 118°12'0 0.0
2018-Sep-17 11:00N 33°45' W 118°12'0 0.0
2018-Sep-17 10:30N 33°45' W 118°12'0 0.0
2018-Sep-17 10:03N 33°45' W 118°12'0 0.0
2018-Sep-17 10:00N 33°45' W 118°12'0 0.0
2018-Sep-17 09:31N 33°45' W 118°12'0 0.0
2018-Sep-17 09:04N 33°45' W 118°12'0 0.0
2018-Sep-17 09:00N 33°45' W 118°12'0 0.0
2018-Sep-17 08:30N 33°45' W 118°12'0 0.0
2018-Sep-17 08:03N 33°45' W 118°12'0 0.0
2018-Sep-17 08:00N 33°45' W 118°12'0 0.0
2018-Sep-17 07:30N 33°45' W 118°12'0 0.0
2018-Sep-17 07:03N 33°45' W 118°12'0 0.0
2018-Sep-17 07:00N 33°45' W 118°12'0 0.0
2018-Sep-17 06:30N 33°45' W 118°12'0 0.0
2018-Sep-17 06:04N 33°45' W 118°12'0 0.0
2018-Sep-17 06:00N 33°45' W 118°12'0 0.0
2018-Sep-17 05:30N 33°45' W 118°12'0 0.0
2018-Sep-17 05:03N 33°45' W 118°12'0 0.1
2018-Sep-17 05:00N 33°45' W 118°12'0 0.0
2018-Sep-17 04:30N 33°45' W 118°12'0 0.0
2018-Sep-17 04:03N 33°45' W 118°12'0 0.0
2018-Sep-17 04:00N 33°45' W 118°12'0 0.0
2018-Sep-17 03:30N 33°45' W 118°12'0 0.0
2018-Sep-17 03:03N 33°45' W 118°12'0 0.0
2018-Sep-17 03:00N 33°45' W 118°12'0 0.0
2018-Sep-17 02:30N 33°45' W 118°12'0 0.0
2018-Sep-17 02:04N 33°45' W 118°12'0 0.0
2018-Sep-17 02:00N 33°45' W 118°12'0 0.0
2018-Sep-17 01:30N 33°45' W 118°12'0 0.0
2018-Sep-17 01:03N 33°45' W 118°12'0 0.1
2018-Sep-17 01:00N 33°45' W 118°12'0 0.0
2018-Sep-17 00:30N 33°45' W 118°12'0 0.0
2018-Sep-17 00:03N 33°45' W 118°12'0 0.0
2018-Sep-17 00:00N 33°45' W 118°12'0 0.0
2018-Sep-16 23:31N 33°45' W 118°12'0 0.0
2018-Sep-16 23:03N 33°45' W 118°12'0 0.0
2018-Sep-16 23:00N 33°45' W 118°12'0 0.0
2018-Sep-16 22:30N 33°45' W 118°12'0 0.0
2018-Sep-16 22:04N 33°45' W 118°12'0 0.0
2018-Sep-16 22:00N 33°45' W 118°12'0 0.0
2018-Sep-16 21:30N 33°45' W 118°12'0 0.0
2018-Sep-16 21:03N 33°45' W 118°12'0 0.0
2018-Sep-16 21:01N 33°45' W 118°12'0 0.0
2018-Sep-16 20:30N 33°45' W 118°12'0 0.0
2018-Sep-16 20:03N 33°45' W 118°12'0 0.0
2018-Sep-16 20:01N 33°45' W 118°12'0 0.0
2018-Sep-16 19:30N 33°45' W 118°12'0 0.0
2018-Sep-16 19:03N 33°45' W 118°12'0 0.0
2018-Sep-16 19:01N 33°45' W 118°12'0 0.0
2018-Sep-16 18:31N 33°45' W 118°12'0 0.0
2018-Sep-16 18:03N 33°45' W 118°12'0 0.0
2018-Sep-16 18:00N 33°45' W 118°12'0 0.0
2018-Sep-16 17:30N 33°45' W 118°12'0 0.0
2018-Sep-16 17:03N 33°45' W 118°12'0 0.0
2018-Sep-16 17:00N 33°45' W 118°12'0 0.0
2018-Sep-16 16:30N 33°45' W 118°12'0 0.0
2018-Sep-16 16:03N 33°45' W 118°12'0 0.0
2018-Sep-16 16:00N 33°45' W 118°12'0 0.0
2018-Sep-16 15:30N 33°45' W 118°12'0 0.0
2018-Sep-16 15:04N 33°45' W 118°12'0 0.0
2018-Sep-16 15:00N 33°45' W 118°12'0 0.0
2018-Sep-16 14:31N 33°45' W 118°12'0 0.0
2018-Sep-16 13:30N 33°45' W 118°12'0 0.0
2018-Sep-16 13:03N 33°45' W 118°12'0 0.1
2018-Sep-16 13:00N 33°45' W 118°12'0 0.0
2018-Sep-16 12:31N 33°45' W 118°12'0 0.0
2018-Sep-16 12:04N 33°45' W 118°12'0 0.1
2018-Sep-16 12:01N 33°45' W 118°12'0 0.0
2018-Sep-16 11:30N 33°45' W 118°12'0 0.0
2018-Sep-16 11:03N 33°45' W 118°12'0 0.0
2018-Sep-16 11:00N 33°45' W 118°12'0 0.0
2018-Sep-16 10:31N 33°45' W 118°12'0 0.0
2018-Sep-16 10:03N 33°45' W 118°12'0 0.0
2018-Sep-16 10:00N 33°45' W 118°12'0 0.0
2018-Sep-16 09:30N 33°45' W 118°12'0 0.0
2018-Sep-16 09:04N 33°45' W 118°12'0 0.0
2018-Sep-16 09:01N 33°45' W 118°12'0 0.0
2018-Sep-16 08:30N 33°45' W 118°12'0 0.0
2018-Sep-16 08:03N 33°45' W 118°12'0 0.0
2018-Sep-16 08:00N 33°45' W 118°12'0 0.0
2018-Sep-16 07:30N 33°45' W 118°12'0 0.0
2018-Sep-16 07:03N 33°45' W 118°12'0 0.0
2018-Sep-16 07:00N 33°45' W 118°12'0 0.0
2018-Sep-16 06:31N 33°45' W 118°12'0 0.0
2018-Sep-16 06:03N 33°45' W 118°12'0 0.0
2018-Sep-16 06:00N 33°45' W 118°12'0 0.0
2018-Sep-16 05:30N 33°45' W 118°12'0 0.0
2018-Sep-16 05:03N 33°45' W 118°12'0 0.1
2018-Sep-16 05:00N 33°45' W 118°12'0 0.0
2018-Sep-16 04:30N 33°45' W 118°12'0 0.0
2018-Sep-16 04:03N 33°45' W 118°12'0 0.0
2018-Sep-16 04:00N 33°45' W 118°12'0 0.0
2018-Sep-16 03:30N 33°45' W 118°12'0 0.0
2018-Sep-16 03:03N 33°45' W 118°12'0 0.0
2018-Sep-16 03:00N 33°45' W 118°12'0 0.0
2018-Sep-16 02:30N 33°45' W 118°12'0 0.0
2018-Sep-16 02:03N 33°45' W 118°12'0 0.1
2018-Sep-16 02:00N 33°45' W 118°12'0 0.0
2018-Sep-16 01:30N 33°45' W 118°12'0 0.0
2018-Sep-16 01:04N 33°45' W 118°12'0 0.1
2018-Sep-16 01:01N 33°45' W 118°12'0 0.0
2018-Sep-16 00:30N 33°45' W 118°12'0 0.0
2018-Sep-16 00:03N 33°45' W 118°12'0 0.0
2018-Sep-16 00:00N 33°45' W 118°12'0 0.0
2018-Sep-15 23:31N 33°45' W 118°12'0 0.0
2018-Sep-15 23:04N 33°45' W 118°12'0 0.0
2018-Sep-15 23:01N 33°45' W 118°12'0 0.0
2018-Sep-15 22:31N 33°45' W 118°12'0 0.0
2018-Sep-15 22:03N 33°45' W 118°12'0 0.0
2018-Sep-15 22:01N 33°45' W 118°12'0 0.0
2018-Sep-15 21:30N 33°45' W 118°12'0 0.0
2018-Sep-15 21:03N 33°45' W 118°12'0 0.1
2018-Sep-15 21:00N 33°45' W 118°12'0 0.0
2018-Sep-15 20:30N 33°45' W 118°12'0 0.0
2018-Sep-15 20:04N 33°45' W 118°12'0 0.0
2018-Sep-15 20:00N 33°45' W 118°12'0 0.0
2018-Sep-15 19:30N 33°45' W 118°12'0 0.0
2018-Sep-15 19:04N 33°45' W 118°12'0 0.0
2018-Sep-15 19:00N 33°45' W 118°12'0 0.0
2018-Sep-15 18:31N 33°45' W 118°12'0 0.0
2018-Sep-15 18:03N 33°45' W 118°12'0 0.0
2018-Sep-15 18:00N 33°45' W 118°12'0 0.0
2018-Sep-15 17:30N 33°45' W 118°12'0 0.0
2018-Sep-15 17:03N 33°45' W 118°12'0 0.0
2018-Sep-15 17:00N 33°45' W 118°12'0 0.0
2018-Sep-15 16:30N 33°45' W 118°12'0 0.0
2018-Sep-15 16:03N 33°45' W 118°12'0 0.0
2018-Sep-15 16:00N 33°45' W 118°12'0 0.0
2018-Sep-15 15:31N 33°45' W 118°12'0 0.0
2018-Sep-15 15:03N 33°45' W 118°12'0 0.0
2018-Sep-15 14:30N 33°45' W 118°12'0 0.0
2018-Sep-15 14:01N 33°45' W 118°12'0 0.0
2018-Sep-15 13:30N 33°45' W 118°12'0 0.0
2018-Sep-15 13:03N 33°45' W 118°12'0 0.1
2018-Sep-15 13:00N 33°45' W 118°12'0 0.0
2018-Sep-15 12:30N 33°45' W 118°12'0 0.0
2018-Sep-15 12:03N 33°45' W 118°12'0 0.0
2018-Sep-15 12:00N 33°45' W 118°12'0 0.0
2018-Sep-15 11:30N 33°45' W 118°12'0 0.0
2018-Sep-15 11:03N 33°45' W 118°12'0 0.0
2018-Sep-15 11:00N 33°45' W 118°12'0 0.0
2018-Sep-15 10:30N 33°45' W 118°12'0 0.0
2018-Sep-15 10:03N 33°45' W 118°12'0 0.0
2018-Sep-15 10:01N 33°45' W 118°12'0 0.0
2018-Sep-15 09:30N 33°45' W 118°12'0 0.0
2018-Sep-15 09:04N 33°45' W 118°12'0 0.0
2018-Sep-15 09:01N 33°45' W 118°12'0 0.0
2018-Sep-15 08:30N 33°45' W 118°12'0 0.0
2018-Sep-15 08:04N 33°45' W 118°12'0 0.0
2018-Sep-15 08:01N 33°45' W 118°12'0 0.0
2018-Sep-15 07:31N 33°45' W 118°12'0 0.0
2018-Sep-15 07:03N 33°45' W 118°12'0 0.0
2018-Sep-15 07:00N 33°45' W 118°12'0 0.0
2018-Sep-15 06:31N 33°45' W 118°12'0 0.0
2018-Sep-15 06:03N 33°45' W 118°12'0 0.0
2018-Sep-15 06:00N 33°45' W 118°12'0 0.0
2018-Sep-15 05:31N 33°45' W 118°12'0 0.0
2018-Sep-15 05:03N 33°45' W 118°12'0 0.0
2018-Sep-15 05:00N 33°45' W 118°12'0 0.0
2018-Sep-15 04:30N 33°45' W 118°12'0 0.0
2018-Sep-15 04:04N 33°45' W 118°12'0 0.0
2018-Sep-15 04:00N 33°45' W 118°12'0 0.0
2018-Sep-15 03:31N 33°45' W 118°12'0 0.0
2018-Sep-15 03:03N 33°45' W 118°12'0 0.0
2018-Sep-15 03:00N 33°45' W 118°12'0 0.0
2018-Sep-15 02:31N 33°45' W 118°12'0 0.0
2018-Sep-15 02:03N 33°45' W 118°12'0 0.0
2018-Sep-15 02:00N 33°45' W 118°12'0 0.0
2018-Sep-15 01:30N 33°45' W 118°12'0 0.0
2018-Sep-15 01:03N 33°45' W 118°12'0 0.0
2018-Sep-15 01:00N 33°45' W 118°12'0 0.0
2018-Sep-15 00:31N 33°45' W 118°12'0 0.0
2018-Sep-15 00:03N 33°45' W 118°12'0 0.0
2018-Sep-15 00:01N 33°45' W 118°12'0 0.0
2018-Sep-14 23:30N 33°45' W 118°12'1 2.9
2018-Sep-14 23:04N 33°45' W 118°11'0 8.8
2018-Sep-14 23:01N 33°45' W 118°11'0 0.5
2018-Sep-14 22:30N 33°46' W 118°11'0 0.0
2018-Sep-14 22:04N 33°46' W 118°11'0 0.0
2018-Sep-14 22:01N 33°46' W 118°11'2 3.2
2018-Sep-14 21:30N 33°45' W 118°12'0 0.2
2018-Sep-14 21:04N 33°45' W 118°12'0 0.0
2018-Sep-14 21:01N 33°45' W 118°12'3 5.1
2018-Sep-14 20:30N 33°44' W 118°09'0 0.9
2018-Sep-14 20:04N 33°45' W 118°10'0 0.0
2018-Sep-14 20:01N 33°45' W 118°10'2 4.3
2018-Sep-14 19:30N 33°45' W 118°12'0 0.1
2018-Sep-14 19:04N 33°45' W 118°12'0 5.2
2018-Sep-14 19:00N 33°44' W 118°12'2 2.2
2018-Sep-14 18:12N 33°46' W 118°11'0 0.3
2018-Sep-14 18:03N 33°46' W 118°11'0 0.0
2018-Sep-14 18:00N 33°46' W 118°11'0 0.0
2018-Sep-14 17:30N 33°46' W 118°11'0 0.2
2018-Sep-14 17:03N 33°46' W 118°11'0 6.6
2018-Sep-14 17:00N 33°45' W 118°10'1 2.2
2018-Sep-14 16:30N 33°45' W 118°09'1 2.0
2018-Sep-14 16:03N 33°44' W 118°10'0 8.4
2018-Sep-14 16:00N 33°44' W 118°11'2 3.0
2018-Sep-14 15:30N 33°45' W 118°12'0 0.0
2018-Sep-14 15:03N 33°45' W 118°12'0 0.1
2018-Sep-14 15:00N 33°45' W 118°12'0 0.0
2018-Sep-14 14:30N 33°45' W 118°12'0 0.0
2018-Sep-14 14:01N 33°45' W 118°12'0 0.0
2018-Sep-14 13:30N 33°45' W 118°12'0 0.0
2018-Sep-14 13:03N 33°45' W 118°12'0 0.0
2018-Sep-14 13:00N 33°45' W 118°12'0 0.0
2018-Sep-14 12:30N 33°45' W 118°12'0 0.0
2018-Sep-14 12:03N 33°45' W 118°12'0 0.1
2018-Sep-14 12:00N 33°45' W 118°12'0 0.0
2018-Sep-14 11:30N 33°45' W 118°12'0 0.0
2018-Sep-14 11:03N 33°45' W 118°12'0 0.0
2018-Sep-14 11:00N 33°45' W 118°12'0 0.0
2018-Sep-14 10:30N 33°45' W 118°12'0 0.0
2018-Sep-14 10:03N 33°45' W 118°12'0 0.1
2018-Sep-14 10:00N 33°45' W 118°12'0 0.0
2018-Sep-14 09:30N 33°45' W 118°12'0 0.0
2018-Sep-14 09:03N 33°45' W 118°12'0 0.1
2018-Sep-14 09:00N 33°45' W 118°12'0 0.0
2018-Sep-14 08:30N 33°45' W 118°12'0 0.0
2018-Sep-14 08:03N 33°45' W 118°12'0 0.0
2018-Sep-14 08:00N 33°45' W 118°12'0 0.0
2018-Sep-14 07:30N 33°45' W 118°12'0 0.0
2018-Sep-14 07:03N 33°45' W 118°12'0 0.0
2018-Sep-14 07:00N 33°45' W 118°12'0 0.0
2018-Sep-14 06:30N 33°45' W 118°12'0 0.0
2018-Sep-14 06:03N 33°45' W 118°12'0 0.0
2018-Sep-14 06:00N 33°45' W 118°12'0 0.0
2018-Sep-14 05:30N 33°45' W 118°12'0 0.0
2018-Sep-14 05:03N 33°45' W 118°12'0 0.0
2018-Sep-14 05:00N 33°45' W 118°12'0 0.0
2018-Sep-14 04:30N 33°45' W 118°12'0 0.0
2018-Sep-14 04:03N 33°45' W 118°12'0 0.1
2018-Sep-14 04:00N 33°45' W 118°12'0 0.0
2018-Sep-14 03:30N 33°45' W 118°12'0 0.0
2018-Sep-14 03:03N 33°45' W 118°12'0 0.1
2018-Sep-14 03:00N 33°45' W 118°12'0 0.0
2018-Sep-14 02:31N 33°45' W 118°12'0 0.0
2018-Sep-14 02:03N 33°45' W 118°12'0 0.0
2018-Sep-14 02:00N 33°45' W 118°12'0 0.0
2018-Sep-14 01:30N 33°45' W 118°12'0 0.0
2018-Sep-14 01:03N 33°45' W 118°12'0 0.1
2018-Sep-14 01:00N 33°45' W 118°12'1 2.1
2018-Sep-14 00:31N 33°44' W 118°11'2 3.5
2018-Sep-14 00:03N 33°45' W 118°10'0 0.0
2018-Sep-14 00:00N 33°45' W 118°10'0 0.0
2018-Sep-13 23:30N 33°45' W 118°10'0 0.0
2018-Sep-13 23:03N 33°45' W 118°10'0 0.0
2018-Sep-13 23:01N 33°45' W 118°10'1 2.8
2018-Sep-13 22:30N 33°46' W 118°11'1 2.0
2018-Sep-13 22:03N 33°45' W 118°10'0 7.8
2018-Sep-13 22:00N 33°45' W 118°10'0 0.3
2018-Sep-13 21:31N 33°45' W 118°10'1 3.1
2018-Sep-13 21:03N 33°46' W 118°11'0 0.0
2018-Sep-13 21:00N 33°46' W 118°11'0 0.1
2018-Sep-13 20:30N 33°46' W 118°11'1 3.0
2018-Sep-13 20:03N 33°45' W 118°10'0 0.1
2018-Sep-13 20:00N 33°45' W 118°10'0 0.0
2018-Sep-13 19:30N 33°45' W 118°10'1 3.1
2018-Sep-13 19:03N 33°46' W 118°11'0 0.0
2018-Sep-13 19:00N 33°46' W 118°11'0 0.0
2018-Sep-13 18:30N 33°46' W 118°11'1 3.0
2018-Sep-13 18:03N 33°44' W 118°11'0 7.3
2018-Sep-13 18:00N 33°44' W 118°11'1 2.7
2018-Sep-13 17:30N 33°45' W 118°12'0 0.0
2018-Sep-13 17:03N 33°45' W 118°12'0 0.0
2018-Sep-13 17:00N 33°45' W 118°12'0 0.0
2018-Sep-13 16:30N 33°45' W 118°12'0 0.0
2018-Sep-13 16:03N 33°45' W 118°12'0 0.0
2018-Sep-13 16:00N 33°45' W 118°12'0 0.0
2018-Sep-13 15:30N 33°45' W 118°12'0 0.0
2018-Sep-13 15:03N 33°45' W 118°12'0 0.0
2018-Sep-13 15:00N 33°45' W 118°12'0 0.0
2018-Sep-13 14:30N 33°45' W 118°12'0 0.0
2018-Sep-13 14:00N 33°45' W 118°12'0 0.0
2018-Sep-13 13:30N 33°45' W 118°12'0 0.0
2018-Sep-13 13:03N 33°45' W 118°12'0 0.0
2018-Sep-13 13:00N 33°45' W 118°12'0 0.0
2018-Sep-13 12:30N 33°45' W 118°12'0 0.0
2018-Sep-13 12:03N 33°45' W 118°12'0 0.1
2018-Sep-13 12:00N 33°45' W 118°12'0 0.0
2018-Sep-13 11:31N 33°45' W 118°12'0 0.0
2018-Sep-13 11:03N 33°45' W 118°12'0 0.0
2018-Sep-13 11:00N 33°45' W 118°12'0 0.0
2018-Sep-13 10:30N 33°45' W 118°12'0 0.0
2018-Sep-13 10:03N 33°45' W 118°12'0 0.0
2018-Sep-13 10:00N 33°45' W 118°12'0 0.0
2018-Sep-13 09:30N 33°45' W 118°12'0 0.0
2018-Sep-13 09:03N 33°45' W 118°12'0 0.0
2018-Sep-13 09:00N 33°45' W 118°12'0 0.0
2018-Sep-13 08:30N 33°45' W 118°12'0 0.0
2018-Sep-13 08:03N 33°45' W 118°12'0 0.0
2018-Sep-13 08:00N 33°45' W 118°12'0 0.0
2018-Sep-13 07:30N 33°45' W 118°12'0 0.0
2018-Sep-13 07:03N 33°45' W 118°12'0 0.1
2018-Sep-13 07:00N 33°45' W 118°12'0 0.0
2018-Sep-13 06:30N 33°45' W 118°12'0 0.0
2018-Sep-13 06:03N 33°45' W 118°12'0 0.0
2018-Sep-13 06:00N 33°45' W 118°12'0 0.0
2018-Sep-13 05:30N 33°45' W 118°12'0 0.0
2018-Sep-13 05:03N 33°45' W 118°12'0 0.0
2018-Sep-13 05:00N 33°45' W 118°12'0 0.0
2018-Sep-13 04:30N 33°45' W 118°12'0 0.0
2018-Sep-13 04:03N 33°45' W 118°12'0 0.0
2018-Sep-13 04:00N 33°45' W 118°12'0 0.0
2018-Sep-13 03:30N 33°45' W 118°12'0 0.0
2018-Sep-13 03:03N 33°45' W 118°12'0 0.1
2018-Sep-13 03:00N 33°45' W 118°12'0 0.0
2018-Sep-13 02:30N 33°45' W 118°12'0 0.0
2018-Sep-13 02:03N 33°45' W 118°12'0 0.0
2018-Sep-13 02:00N 33°45' W 118°12'0 0.0
2018-Sep-13 01:30N 33°45' W 118°12'0 0.0
2018-Sep-13 01:03N 33°45' W 118°12'0 0.1
2018-Sep-13 01:00N 33°45' W 118°12'0 0.6
2018-Sep-13 00:30N 33°44' W 118°12'2 4.9
2018-Sep-13 00:03N 33°45' W 118°10'0 0.0
2018-Sep-13 00:00N 33°45' W 118°10'0 0.6
2018-Sep-12 23:30N 33°45' W 118°10'0 0.6
2018-Sep-12 23:03N 33°45' W 118°10'0 0.1
2018-Sep-12 23:00N 33°45' W 118°10'1 1.9
2018-Sep-12 22:30N 33°44' W 118°09'1 2.1
2018-Sep-12 22:03N 33°45' W 118°10'0 0.1
2018-Sep-12 22:01N 33°45' W 118°10'1 2.1
2018-Sep-12 21:30N 33°44' W 118°08'1 2.2
2018-Sep-12 21:02N 33°45' W 118°10'0 0.0
2018-Sep-12 21:00N 33°45' W 118°10'0 0.0
2018-Sep-12 20:30N 33°45' W 118°10'1 2.3
2018-Sep-12 20:03N 33°44' W 118°08'0 0.0
2018-Sep-12 20:00N 33°44' W 118°08'0 0.0
2018-Sep-12 19:30N 33°44' W 118°08'0 1.1
2018-Sep-12 19:03N 33°45' W 118°09'0 8.2
2018-Sep-12 19:00N 33°45' W 118°09'0 0.9
2018-Sep-12 18:30N 33°45' W 118°10'0 0.0
2018-Sep-12 18:03N 33°45' W 118°10'0 0.1
2018-Sep-12 18:00N 33°45' W 118°10'0 0.0
2018-Sep-12 17:30N 33°45' W 118°10'1 3.1
2018-Sep-12 17:03N 33°46' W 118°11'0 0.0
2018-Sep-12 17:00N 33°46' W 118°11'0 0.0
2018-Sep-12 16:30N 33°46' W 118°11'0 0.0
2018-Sep-12 16:03N 33°46' W 118°11'0 0.0
2018-Sep-12 16:00N 33°46' W 118°11'2 3.7
2018-Sep-12 15:30N 33°44' W 118°12'1 1.4
2018-Sep-12 15:03N 33°45' W 118°12'0 0.1
2018-Sep-12 15:00N 33°45' W 118°12'0 0.1
2018-Sep-12 14:03N 33°45' W 118°12'0 0.0
2018-Sep-12 14:00N 33°45' W 118°12'0 0.0
2018-Sep-12 13:30N 33°45' W 118°12'0 0.0
2018-Sep-12 13:03N 33°45' W 118°12'0 0.0
2018-Sep-12 13:00N 33°45' W 118°12'0 0.0
2018-Sep-12 12:30N 33°45' W 118°12'0 0.0
2018-Sep-12 12:03N 33°45' W 118°12'0 0.0
2018-Sep-12 12:00N 33°45' W 118°12'0 0.0
2018-Sep-12 11:30N 33°45' W 118°12'0 0.0
2018-Sep-12 11:03N 33°45' W 118°12'0 0.0
2018-Sep-12 11:00N 33°45' W 118°12'0 0.0
2018-Sep-12 10:30N 33°45' W 118°12'0 0.0
2018-Sep-12 10:03N 33°45' W 118°12'0 0.0
2018-Sep-12 10:00N 33°45' W 118°12'0 0.0
2018-Sep-12 09:30N 33°45' W 118°12'0 0.0
2018-Sep-12 09:03N 33°45' W 118°12'0 0.1
2018-Sep-12 09:00N 33°45' W 118°12'0 0.0
2018-Sep-12 08:30N 33°45' W 118°12'0 0.0
2018-Sep-12 08:03N 33°45' W 118°12'0 0.0
2018-Sep-12 08:00N 33°45' W 118°12'0 0.0
2018-Sep-12 07:30N 33°45' W 118°12'0 0.0
2018-Sep-12 07:03N 33°45' W 118°12'0 0.0
2018-Sep-12 07:00N 33°45' W 118°12'0 0.0
2018-Sep-12 06:30N 33°45' W 118°12'0 0.0
2018-Sep-12 06:03N 33°45' W 118°12'0 0.0
2018-Sep-12 06:00N 33°45' W 118°12'0 0.0
2018-Sep-12 05:30N 33°45' W 118°12'0 0.0
2018-Sep-12 05:03N 33°45' W 118°12'0 0.0
2018-Sep-12 05:00N 33°45' W 118°12'0 0.0
2018-Sep-12 04:30N 33°45' W 118°12'0 0.0
2018-Sep-12 04:03N 33°45' W 118°12'0 0.0
2018-Sep-12 04:00N 33°45' W 118°12'0 0.0
2018-Sep-12 03:30N 33°45' W 118°12'0 0.0
2018-Sep-12 03:03N 33°45' W 118°12'0 0.0
2018-Sep-12 03:00N 33°45' W 118°12'0 0.0
2018-Sep-12 02:30N 33°45' W 118°12'0 0.0
2018-Sep-12 02:03N 33°45' W 118°12'0 0.0
2018-Sep-12 02:00N 33°45' W 118°12'0 0.0
2018-Sep-12 01:30N 33°45' W 118°12'0 0.0
2018-Sep-12 01:03N 33°45' W 118°12'0 0.0
2018-Sep-12 01:00N 33°45' W 118°12'2 3.1
2018-Sep-12 00:30N 33°46' W 118°11'1 2.7
2018-Sep-12 00:03N 33°45' W 118°10'0 8.3
2018-Sep-12 00:00N 33°45' W 118°10'1 1.6
2018-Sep-11 23:30N 33°46' W 118°11'1 2.8
2018-Sep-11 23:03N 33°44' W 118°11'0 8.1
2018-Sep-11 23:00N 33°44' W 118°11'1 2.6
2018-Sep-11 22:30N 33°45' W 118°12'0 0.1
2018-Sep-11 22:03N 33°45' W 118°12'0 0.0
2018-Sep-11 22:00N 33°45' W 118°12'0 0.0
2018-Sep-11 21:30N 33°45' W 118°12'0 0.0
2018-Sep-11 21:03N 33°45' W 118°12'0 0.2
2018-Sep-11 21:00N 33°45' W 118°12'1 2.8
2018-Sep-11 20:30N 33°44' W 118°11'1 2.1
2018-Sep-11 20:03N 33°45' W 118°10'0 0.0
2018-Sep-11 20:00N 33°45' W 118°10'0 0.0
2018-Sep-11 19:30N 33°45' W 118°10'0 0.0
2018-Sep-11 19:04N 33°45' W 118°10'0 0.1
2018-Sep-11 19:00N 33°45' W 118°10'1 1.2
2018-Sep-11 18:30N 33°45' W 118°10'0 0.0
2018-Sep-11 18:03N 33°45' W 118°10'0 0.0
2018-Sep-11 18:00N 33°45' W 118°10'0 0.2
2018-Sep-11 17:30N 33°45' W 118°10'1 1.4
2018-Sep-11 17:03N 33°45' W 118°10'0 0.0
2018-Sep-11 17:00N 33°45' W 118°10'0 0.0
2018-Sep-11 16:30N 33°45' W 118°10'1 1.4
2018-Sep-11 16:03N 33°45' W 118°09'0 9.4
2018-Sep-11 16:00N 33°44' W 118°08'2 3.6
2018-Sep-11 15:30N 33°44' W 118°11'2 3.5
2018-Sep-11 15:03N 33°45' W 118°12'0 0.0
2018-Sep-11 15:00N 33°45' W 118°12'0 0.1
2018-Sep-11 14:30N 33°45' W 118°12'0 0.0
2018-Sep-11 13:59N 33°45' W 118°12'0 0.0
2018-Sep-11 13:30N 33°45' W 118°12'0 0.0
2018-Sep-11 13:03N 33°45' W 118°12'0 0.0
2018-Sep-11 13:00N 33°45' W 118°12'0 0.0
2018-Sep-11 12:30N 33°45' W 118°12'0 0.0
2018-Sep-11 12:03N 33°45' W 118°12'0 0.0
2018-Sep-11 12:00N 33°45' W 118°12'0 0.0
2018-Sep-11 11:30N 33°45' W 118°12'0 0.0
2018-Sep-11 11:03N 33°45' W 118°12'0 0.0
2018-Sep-11 11:00N 33°45' W 118°12'0 0.0
2018-Sep-11 10:30N 33°45' W 118°12'0 0.0
2018-Sep-11 10:03N 33°45' W 118°12'0 0.0
2018-Sep-11 10:00N 33°45' W 118°12'0 0.0
2018-Sep-11 09:30N 33°45' W 118°12'0 0.0
2018-Sep-11 09:03N 33°45' W 118°12'0 0.0
2018-Sep-11 09:00N 33°45' W 118°12'0 0.0
2018-Sep-11 08:30N 33°45' W 118°12'0 0.0
2018-Sep-11 08:03N 33°45' W 118°12'0 0.0
2018-Sep-11 08:00N 33°45' W 118°12'0 0.0
2018-Sep-11 07:30N 33°45' W 118°12'0 0.0
2018-Sep-11 07:03N 33°45' W 118°12'0 0.0
2018-Sep-11 07:00N 33°45' W 118°12'0 0.0
2018-Sep-11 06:30N 33°45' W 118°12'0 0.0
2018-Sep-11 06:03N 33°45' W 118°12'0 0.0
2018-Sep-11 06:00N 33°45' W 118°12'0 0.0
2018-Sep-11 05:30N 33°45' W 118°12'0 0.0
2018-Sep-11 05:03N 33°45' W 118°12'0 0.0
2018-Sep-11 05:00N 33°45' W 118°12'0 0.0
2018-Sep-11 04:30N 33°45' W 118°12'0 0.0
2018-Sep-11 04:03N 33°45' W 118°12'0 0.0
2018-Sep-11 04:00N 33°45' W 118°12'0 0.0
2018-Sep-11 03:30N 33°45' W 118°12'0 0.0
2018-Sep-11 03:03N 33°45' W 118°12'0 0.0
2018-Sep-11 03:00N 33°45' W 118°12'0 0.0
2018-Sep-11 02:30N 33°45' W 118°12'0 0.0
2018-Sep-11 02:03N 33°45' W 118°12'0 0.0
2018-Sep-11 02:00N 33°45' W 118°12'0 0.0
2018-Sep-11 01:30N 33°45' W 118°12'0 0.0
2018-Sep-11 01:03N 33°45' W 118°12'0 0.0
2018-Sep-11 01:00N 33°45' W 118°12'0 0.0
2018-Sep-11 00:30N 33°45' W 118°12'1 3.1
2018-Sep-11 00:03N 33°44' W 118°11'0 8.8
2018-Sep-11 00:00N 33°44' W 118°10'1 1.5
2018-Sep-10 23:30N 33°45' W 118°10'1 2.4
2018-Sep-10 23:03N 33°44' W 118°08'0 1.2
2018-Sep-10 23:00N 33°44' W 118°08'0 0.3
2018-Sep-10 22:30N 33°44' W 118°09'1 1.3
2018-Sep-10 22:03N 33°45' W 118°09'0 7.1
2018-Sep-10 22:00N 33°45' W 118°09'1 2.6
2018-Sep-10 21:30N 33°46' W 118°11'0 0.0
2018-Sep-10 21:03N 33°46' W 118°11'0 0.0
2018-Sep-10 21:00N 33°46' W 118°11'0 0.0
2018-Sep-10 20:30N 33°46' W 118°11'2 4.1
2018-Sep-10 20:03N 33°44' W 118°12'0 6.9
2018-Sep-10 20:00N 33°45' W 118°12'0 0.1
2018-Sep-10 19:30N 33°45' W 118°12'0 0.0
2018-Sep-10 19:03N 33°45' W 118°12'0 0.0
2018-Sep-10 19:00N 33°45' W 118°12'0 0.7
2018-Sep-10 18:30N 33°44' W 118°12'2 4.1
2018-Sep-10 18:03N 33°46' W 118°11'0 0.1
2018-Sep-10 18:00N 33°46' W 118°11'0 0.1
2018-Sep-10 17:30N 33°46' W 118°11'0 0.7
2018-Sep-10 17:03N 33°45' W 118°10'0 1.0
2018-Sep-10 17:00N 33°45' W 118°11'1 1.5
2018-Sep-10 16:30N 33°45' W 118°10'1 2.5
2018-Sep-10 16:03N 33°44' W 118°09'0 6.3
2018-Sep-10 16:00N 33°44' W 118°09'3 5.5
2018-Sep-10 15:30N 33°45' W 118°12'0 0.0
2018-Sep-10 15:03N 33°45' W 118°12'0 0.0
2018-Sep-10 15:00N 33°45' W 118°12'0 0.0
2018-Sep-10 14:30N 33°45' W 118°12'0 0.0
2018-Sep-10 14:00N 33°45' W 118°12'0 0.0
2018-Sep-10 13:30N 33°45' W 118°12'0 0.0
2018-Sep-10 13:04N 33°45' W 118°12'0 0.0
2018-Sep-10 13:00N 33°45' W 118°12'0 0.0
2018-Sep-10 12:30N 33°45' W 118°12'0 0.0
2018-Sep-10 12:03N 33°45' W 118°12'0 0.0
2018-Sep-10 12:00N 33°45' W 118°12'0 0.0
2018-Sep-10 11:30N 33°45' W 118°12'0 0.0
2018-Sep-10 11:03N 33°45' W 118°12'0 0.0
2018-Sep-10 11:00N 33°45' W 118°12'0 0.0
2018-Sep-10 10:30N 33°45' W 118°12'0 0.0
2018-Sep-10 10:03N 33°45' W 118°12'0 0.0
2018-Sep-10 10:00N 33°45' W 118°12'0 0.0
2018-Sep-10 09:30N 33°45' W 118°12'0 0.0
2018-Sep-10 09:03N 33°45' W 118°12'0 0.0
2018-Sep-10 09:00N 33°45' W 118°12'0 0.0
2018-Sep-10 08:30N 33°45' W 118°12'0 0.0
2018-Sep-10 08:03N 33°45' W 118°12'0 0.0
2018-Sep-10 08:00N 33°45' W 118°12'0 0.0
2018-Sep-10 07:31N 33°45' W 118°12'0 0.0
2018-Sep-10 07:03N 33°45' W 118°12'0 0.0
2018-Sep-10 07:00N 33°45' W 118°12'0 0.0
2018-Sep-10 06:30N 33°45' W 118°12'0 0.0
2018-Sep-10 06:03N 33°45' W 118°12'0 0.0
2018-Sep-10 06:00N 33°45' W 118°12'0 0.0
2018-Sep-10 05:30N 33°45' W 118°12'0 0.0
2018-Sep-10 05:03N 33°45' W 118°12'0 0.0
2018-Sep-10 05:00N 33°45' W 118°12'0 0.0
2018-Sep-10 04:30N 33°45' W 118°12'0 0.0
2018-Sep-10 04:03N 33°45' W 118°12'0 0.0
2018-Sep-10 04:00N 33°45' W 118°12'0 0.0
2018-Sep-10 03:30N 33°45' W 118°12'0 0.0
2018-Sep-10 03:03N 33°45' W 118°12'0 0.0
2018-Sep-10 03:00N 33°45' W 118°12'0 0.0
2018-Sep-10 02:30N 33°45' W 118°12'0 0.0
2018-Sep-10 02:03N 33°45' W 118°12'0 0.0
2018-Sep-10 02:00N 33°45' W 118°12'0 0.0
2018-Sep-10 01:30N 33°45' W 118°12'0 0.0
2018-Sep-10 01:03N 33°45' W 118°12'0 0.0
2018-Sep-10 01:00N 33°45' W 118°12'0 0.0
2018-Sep-10 00:30N 33°45' W 118°12'0 0.0
2018-Sep-10 00:03N 33°45' W 118°12'0 0.0
2018-Sep-10 00:00N 33°45' W 118°12'0 0.0
2018-Sep-09 23:30N 33°45' W 118°12'0 0.0
2018-Sep-09 23:04N 33°45' W 118°12'0 0.0
2018-Sep-09 23:00N 33°45' W 118°12'0 0.0
2018-Sep-09 22:30N 33°45' W 118°12'0 0.0
2018-Sep-09 22:03N 33°45' W 118°12'0 0.1
2018-Sep-09 22:00N 33°45' W 118°12'0 0.0
2018-Sep-09 21:30N 33°45' W 118°12'0 0.0
2018-Sep-09 21:03N 33°45' W 118°12'0 0.0
2018-Sep-09 21:00N 33°45' W 118°12'0 0.0
2018-Sep-09 20:30N 33°45' W 118°12'0 0.0
2018-Sep-09 20:03N 33°45' W 118°12'0 0.0
2018-Sep-09 20:00N 33°45' W 118°12'0 0.0
2018-Sep-09 19:30N 33°45' W 118°12'0 0.0
2018-Sep-09 19:03N 33°45' W 118°12'0 0.0
2018-Sep-09 19:00N 33°45' W 118°12'  
Track history (hours):
 
Tides and Currents Weather Stations Pressure Air Temp Water Temp Dewpoint Dewpoint Depression Visibility Wind Speed Wind Dir Waves Ship Positions

Redondo

Owner: SAUSE BROS INC, Long Beach, CA. More information available from US FCC via Universal Licensing System and Coast Guard Vessel Documentation Center.

Last reported at 2018-Sep-19 19:03 UTC. Time now 2018-Sep-19 19:11 UTC.
Position N 33°45' W 118°10'.

Length 20 m; draft 2.2 m.

Type: Towing. MMSI: 366760710.

Date/timePositionNaut miles runAvg speedWind from/ knotsBaromVisibWave heightAir tempDewpointWater temp
2018-Sep-19 19:03N 33°45' W 118°10'0 0.0
2018-Sep-19 19:00N 33°45' W 118°10'1 2.5
2018-Sep-19 18:30N 33°44' W 118°08'3 7.1
2018-Sep-19 18:03N 33°45' W 118°12'0 0.5
2018-Sep-19 18:00N 33°45' W 118°12'1 2.8
2018-Sep-19 17:30N 33°44' W 118°11'2 4.6
2018-Sep-19 17:03N 33°44' W 118°08'0 5.5
2018-Sep-19 17:00N 33°45' W 118°09'2 3.8
2018-Sep-19 16:30N 33°46' W 118°11'0 0.1
2018-Sep-19 16:04N 33°46' W 118°11'0 0.0
2018-Sep-19 16:00N 33°46' W 118°11'0 0.0
2018-Sep-19 15:31N 33°46' W 118°11'1 3.1
2018-Sep-19 15:03N 33°45' W 118°10'0 0.0
2018-Sep-19 15:00N 33°45' W 118°10'0 0.0
2018-Sep-19 14:29N 33°45' W 118°10'2 2.2
2018-Sep-19 13:30N 33°45' W 118°12'0 0.0
2018-Sep-19 13:04N 33°45' W 118°12'0 0.1
2018-Sep-19 13:01N 33°45' W 118°12'0 0.0
2018-Sep-19 12:30N 33°45' W 118°12'0 0.1
2018-Sep-19 12:03N 33°45' W 118°12'0 1.0
2018-Sep-19 12:00N 33°45' W 118°12'0 0.1
2018-Sep-19 11:30N 33°45' W 118°12'0 0.0
2018-Sep-19 11:03N 33°45' W 118°12'0 1.1
2018-Sep-19 11:00N 33°45' W 118°12'2 4.2
2018-Sep-19 10:30N 33°45' W 118°10'0 0.4
2018-Sep-19 10:04N 33°45' W 118°10'0 0.0
2018-Sep-19 10:00N 33°45' W 118°10'2 3.5
2018-Sep-19 09:31N 33°44' W 118°11'1 2.8
2018-Sep-19 09:03N 33°45' W 118°12'0 0.0
2018-Sep-19 09:01N 33°45' W 118°12'0 0.0
2018-Sep-19 08:30N 33°45' W 118°12'0 0.0
2018-Sep-19 08:03N 33°45' W 118°12'0 0.0
2018-Sep-19 08:00N 33°45' W 118°12'1 2.5
2018-Sep-19 07:30N 33°44' W 118°11'1 2.8
2018-Sep-19 07:03N 33°45' W 118°10'0 0.0
2018-Sep-19 07:00N 33°45' W 118°10'0 0.0
2018-Sep-19 06:30N 33°45' W 118°10'1 1.4
2018-Sep-19 06:04N 33°45' W 118°10'0 7.6
2018-Sep-19 06:01N 33°44' W 118°11'1 2.8
2018-Sep-19 05:31N 33°45' W 118°12'1 2.1
2018-Sep-19 05:03N 33°44' W 118°12'0 7.6
2018-Sep-19 05:00N 33°44' W 118°11'1 2.8
2018-Sep-19 04:30N 33°45' W 118°10'1 2.4
2018-Sep-19 04:04N 33°44' W 118°08'0 0.0
2018-Sep-19 04:01N 33°44' W 118°08'1 2.6
2018-Sep-19 03:30N 33°45' W 118°10'0 0.4
2018-Sep-19 03:03N 33°45' W 118°10'0 0.0
2018-Sep-19 03:00N 33°45' W 118°10'1 1.9
2018-Sep-19 02:30N 33°46' W 118°11'1 2.1
2018-Sep-19 02:03N 33°45' W 118°10'0 7.4
2018-Sep-19 02:01N 33°44' W 118°11'1 3.0
2018-Sep-19 01:30N 33°45' W 118°12'0 0.0
2018-Sep-19 01:04N 33°45' W 118°12'0 0.0
2018-Sep-19 01:00N 33°45' W 118°12'0 0.1
2018-Sep-19 00:31N 33°45' W 118°12'0 0.1
2018-Sep-19 00:03N 33°45' W 118°12'0 0.0
2018-Sep-19 00:00N 33°45' W 118°12'0 0.0
2018-Sep-18 23:30N 33°45' W 118°12'1 1.7
2018-Sep-18 23:03N 33°44' W 118°12'0 7.2
2018-Sep-18 23:00N 33°44' W 118°12'2 3.7
2018-Sep-18 22:30N 33°46' W 118°11'1 2.3
2018-Sep-18 22:03N 33°45' W 118°10'0 0.9
2018-Sep-18 22:00N 33°45' W 118°10'2 4.8
2018-Sep-18 21:31N 33°44' W 118°12'0 1.1
2018-Sep-18 21:03N 33°45' W 118°12'0 0.1
2018-Sep-18 21:00N 33°45' W 118°12'0 0.0
2018-Sep-18 20:30N 33°45' W 118°12'0 0.0
2018-Sep-18 20:03N 33°45' W 118°12'0 0.1
2018-Sep-18 20:00N 33°45' W 118°12'2 4.4
2018-Sep-18 19:30N 33°45' W 118°10'0 0.0
2018-Sep-18 19:03N 33°45' W 118°10'0 0.0
2018-Sep-18 19:00N 33°45' W 118°10'0 0.0
2018-Sep-18 18:31N 33°45' W 118°10'0 0.0
2018-Sep-18 18:03N 33°45' W 118°10'0 0.0
2018-Sep-18 18:01N 33°45' W 118°10'1 2.1
2018-Sep-18 17:30N 33°44' W 118°08'0 0.0
2018-Sep-18 17:03N 33°44' W 118°08'0 0.0
2018-Sep-18 17:00N 33°44' W 118°08'0 0.0
2018-Sep-18 16:30N 33°44' W 118°08'1 2.6
2018-Sep-18 16:03N 33°45' W 118°10'0 3.7
2018-Sep-18 16:00N 33°45' W 118°10'0 1.0
2018-Sep-18 15:30N 33°45' W 118°10'1 2.3
2018-Sep-18 15:03N 33°46' W 118°11'0 0.1
2018-Sep-18 15:01N 33°46' W 118°11'0 0.0
2018-Sep-18 14:31N 33°46' W 118°11'0 0.0
2018-Sep-18 14:00N 33°46' W 118°11'2 3.0
2018-Sep-18 13:30N 33°45' W 118°12'0 0.1
2018-Sep-18 13:04N 33°45' W 118°12'0 0.0
2018-Sep-18 13:01N 33°45' W 118°12'0 0.0
2018-Sep-18 12:31N 33°45' W 118°12'0 0.0
2018-Sep-18 12:03N 33°45' W 118°12'0 0.1
2018-Sep-18 12:00N 33°45' W 118°12'0 0.0
2018-Sep-18 11:30N 33°45' W 118°12'0 0.1
2018-Sep-18 11:03N 33°45' W 118°12'0 0.1
2018-Sep-18 11:00N 33°45' W 118°12'0 0.1
2018-Sep-18 10:30N 33°45' W 118°12'0 0.0
2018-Sep-18 10:03N 33°45' W 118°12'0 0.0
2018-Sep-18 10:00N 33°45' W 118°12'0 0.0
2018-Sep-18 09:31N 33°45' W 118°12'1 1.9
2018-Sep-18 09:04N 33°44' W 118°12'0 8.6
2018-Sep-18 09:00N 33°44' W 118°11'2 3.0
2018-Sep-18 08:30N 33°45' W 118°10'1 1.3
2018-Sep-18 08:03N 33°45' W 118°10'0 7.4
2018-Sep-18 08:00N 33°45' W 118°10'1 1.9
2018-Sep-18 07:30N 33°45' W 118°10'1 2.3
2018-Sep-18 07:03N 33°44' W 118°08'0 0.1
2018-Sep-18 07:00N 33°44' W 118°08'3 5.7
2018-Sep-18 06:30N 33°44' W 118°12'1 2.1
2018-Sep-18 06:03N 33°45' W 118°12'0 0.0
2018-Sep-18 06:01N 33°45' W 118°12'2 3.7
2018-Sep-18 05:30N 33°44' W 118°10'1 3.4
2018-Sep-18 05:03N 33°44' W 118°08'0 0.0
2018-Sep-18 05:00N 33°44' W 118°08'1 2.6
2018-Sep-18 04:30N 33°45' W 118°10'0 0.1
2018-Sep-18 04:03N 33°45' W 118°10'0 0.1
2018-Sep-18 03:58N 33°45' W 118°10'1 2.0
2018-Sep-18 03:30N 33°46' W 118°11'0 0.2
2018-Sep-18 03:04N 33°46' W 118°11'0 0.0
2018-Sep-18 03:00N 33°46' W 118°11'1 2.5
2018-Sep-18 02:30N 33°44' W 118°11'1 3.2
2018-Sep-18 02:03N 33°45' W 118°12'0 0.0
2018-Sep-18 02:00N 33°45' W 118°12'0 0.4
2018-Sep-18 01:30N 33°44' W 118°12'2 5.1
2018-Sep-18 01:03N 33°45' W 118°10'0 1.5
2018-Sep-18 01:00N 33°45' W 118°10'1 1.2
2018-Sep-18 00:30N 33°45' W 118°10'0 0.0
2018-Sep-18 00:03N 33°45' W 118°10'0 0.0
2018-Sep-18 00:00N 33°45' W 118°10'0 0.2
2018-Sep-17 23:30N 33°45' W 118°10'2 4.6
2018-Sep-17 23:03N 33°45' W 118°12'0 0.1
2018-Sep-17 23:00N 33°45' W 118°12'0 0.0
2018-Sep-17 22:30N 33°45' W 118°12'0 0.0
2018-Sep-17 22:03N 33°45' W 118°12'0 0.3
2018-Sep-17 22:00N 33°45' W 118°12'2 3.3
2018-Sep-17 21:31N 33°46' W 118°11'2 3.4
2018-Sep-17 21:03N 33°45' W 118°09'0 6.6
2018-Sep-17 21:00N 33°45' W 118°09'0 0.6
2018-Sep-17 20:31N 33°45' W 118°09'0 1.1
2018-Sep-17 20:04N 33°45' W 118°10'0 0.0
2018-Sep-17 20:01N 33°45' W 118°10'1 2.7
2018-Sep-17 19:30N 33°44' W 118°11'1 2.7
2018-Sep-17 19:03N 33°45' W 118°12'0 0.0
2018-Sep-17 19:00N 33°45' W 118°12'0 0.0
2018-Sep-17 18:31N 33°45' W 118°12'0 0.0
2018-Sep-17 18:04N 33°45' W 118°12'0 0.0
2018-Sep-17 18:01N 33°45' W 118°12'2 4.2
2018-Sep-17 17:30N 33°45' W 118°10'1 2.7
2018-Sep-17 17:04N 33°44' W 118°08'0 0.0
2018-Sep-17 17:01N 33°44' W 118°08'0 0.0
2018-Sep-17 16:29N 33°44' W 118°08'1 2.1
2018-Sep-17 16:04N 33°45' W 118°09'0 4.0
2018-Sep-17 16:01N 33°45' W 118°10'2 3.5
2018-Sep-17 15:30N 33°44' W 118°12'1 2.0
2018-Sep-17 15:04N 33°45' W 118°12'0 0.0
2018-Sep-17 15:01N 33°45' W 118°12'0 0.0
2018-Sep-17 14:30N 33°45' W 118°12'0 0.0
2018-Sep-17 14:03N 33°45' W 118°12'0 0.1
2018-Sep-17 14:00N 33°45' W 118°12'0 0.0
2018-Sep-17 13:30N 33°45' W 118°12'0 0.0
2018-Sep-17 13:03N 33°45' W 118°12'0 0.1
2018-Sep-17 13:00N 33°45' W 118°12'0 0.0
2018-Sep-17 12:30N 33°45' W 118°12'0 0.0
2018-Sep-17 12:03N 33°45' W 118°12'0 0.0
2018-Sep-17 12:01N 33°45' W 118°12'0 0.0
2018-Sep-17 11:30N 33°45' W 118°12'0 0.0
2018-Sep-17 11:04N 33°45' W 118°12'0 0.0
2018-Sep-17 11:00N 33°45' W 118°12'0 0.0
2018-Sep-17 10:30N 33°45' W 118°12'0 0.0
2018-Sep-17 10:03N 33°45' W 118°12'0 0.0
2018-Sep-17 10:00N 33°45' W 118°12'0 0.0
2018-Sep-17 09:31N 33°45' W 118°12'0 0.0
2018-Sep-17 09:04N 33°45' W 118°12'0 0.0
2018-Sep-17 09:00N 33°45' W 118°12'0 0.0
2018-Sep-17 08:30N 33°45' W 118°12'0 0.0
2018-Sep-17 08:03N 33°45' W 118°12'0 0.0
2018-Sep-17 08:00N 33°45' W 118°12'0 0.0
2018-Sep-17 07:30N 33°45' W 118°12'0 0.0
2018-Sep-17 07:03N 33°45' W 118°12'0 0.0
2018-Sep-17 07:00N 33°45' W 118°12'0 0.0
2018-Sep-17 06:30N 33°45' W 118°12'0 0.0
2018-Sep-17 06:04N 33°45' W 118°12'0 0.0
2018-Sep-17 06:00N 33°45' W 118°12'0 0.0
2018-Sep-17 05:30N 33°45' W 118°12'0 0.0
2018-Sep-17 05:03N 33°45' W 118°12'0 0.1
2018-Sep-17 05:00N 33°45' W 118°12'0 0.0
2018-Sep-17 04:30N 33°45' W 118°12'0 0.0
2018-Sep-17 04:03N 33°45' W 118°12'0 0.0
2018-Sep-17 04:00N 33°45' W 118°12'0 0.0
2018-Sep-17 03:30N 33°45' W 118°12'0 0.0
2018-Sep-17 03:03N 33°45' W 118°12'0 0.0
2018-Sep-17 03:00N 33°45' W 118°12'0 0.0
2018-Sep-17 02:30N 33°45' W 118°12'0 0.0
2018-Sep-17 02:04N 33°45' W 118°12'0 0.0
2018-Sep-17 02:00N 33°45' W 118°12'0 0.0
2018-Sep-17 01:30N 33°45' W 118°12'0 0.0
2018-Sep-17 01:03N 33°45' W 118°12'0 0.1
2018-Sep-17 01:00N 33°45' W 118°12'0 0.0
2018-Sep-17 00:30N 33°45' W 118°12'0 0.0
2018-Sep-17 00:03N 33°45' W 118°12'0 0.0
2018-Sep-17 00:00N 33°45' W 118°12'0 0.0
2018-Sep-16 23:31N 33°45' W 118°12'0 0.0
2018-Sep-16 23:03N 33°45' W 118°12'0 0.0
2018-Sep-16 23:00N 33°45' W 118°12'0 0.0
2018-Sep-16 22:30N 33°45' W 118°12'0 0.0
2018-Sep-16 22:04N 33°45' W 118°12'0 0.0
2018-Sep-16 22:00N 33°45' W 118°12'0 0.0
2018-Sep-16 21:30N 33°45' W 118°12'0 0.0
2018-Sep-16 21:03N 33°45' W 118°12'0 0.0
2018-Sep-16 21:01N 33°45' W 118°12'0 0.0
2018-Sep-16 20:30N 33°45' W 118°12'0 0.0
2018-Sep-16 20:03N 33°45' W 118°12'0 0.0
2018-Sep-16 20:01N 33°45' W 118°12'0 0.0
2018-Sep-16 19:30N 33°45' W 118°12'0 0.0
2018-Sep-16 19:03N 33°45' W 118°12'0 0.0
2018-Sep-16 19:01N 33°45' W 118°12'0 0.0
2018-Sep-16 18:31N 33°45' W 118°12'0 0.0
2018-Sep-16 18:03N 33°45' W 118°12'0 0.0
2018-Sep-16 18:00N 33°45' W 118°12'0 0.0
2018-Sep-16 17:30N 33°45' W 118°12'0 0.0
2018-Sep-16 17:03N 33°45' W 118°12'0 0.0
2018-Sep-16 17:00N 33°45' W 118°12'0 0.0
2018-Sep-16 16:30N 33°45' W 118°12'0 0.0
2018-Sep-16 16:03N 33°45' W 118°12'0 0.0
2018-Sep-16 16:00N 33°45' W 118°12'0 0.0
2018-Sep-16 15:30N 33°45' W 118°12'0 0.0
2018-Sep-16 15:04N 33°45' W 118°12'0 0.0
2018-Sep-16 15:00N 33°45' W 118°12'0 0.0
2018-Sep-16 14:31N 33°45' W 118°12'0 0.0
2018-Sep-16 13:30N 33°45' W 118°12'0 0.0
2018-Sep-16 13:03N 33°45' W 118°12'0 0.1
2018-Sep-16 13:00N 33°45' W 118°12'0 0.0
2018-Sep-16 12:31N 33°45' W 118°12'0 0.0
2018-Sep-16 12:04N 33°45' W 118°12'0 0.1
2018-Sep-16 12:01N 33°45' W 118°12'0 0.0
2018-Sep-16 11:30N 33°45' W 118°12'0 0.0
2018-Sep-16 11:03N 33°45' W 118°12'0 0.0
2018-Sep-16 11:00N 33°45' W 118°12'0 0.0
2018-Sep-16 10:31N 33°45' W 118°12'0 0.0
2018-Sep-16 10:03N 33°45' W 118°12'0 0.0
2018-Sep-16 10:00N 33°45' W 118°12'0 0.0
2018-Sep-16 09:30N 33°45' W 118°12'0 0.0
2018-Sep-16 09:04N 33°45' W 118°12'0 0.0
2018-Sep-16 09:01N 33°45' W 118°12'0 0.0
2018-Sep-16 08:30N 33°45' W 118°12'0 0.0
2018-Sep-16 08:03N 33°45' W 118°12'0 0.0
2018-Sep-16 08:00N 33°45' W 118°12'0 0.0
2018-Sep-16 07:30N 33°45' W 118°12'0 0.0
2018-Sep-16 07:03N 33°45' W 118°12'0 0.0
2018-Sep-16 07:00N 33°45' W 118°12'0 0.0
2018-Sep-16 06:31N 33°45' W 118°12'0 0.0
2018-Sep-16 06:03N 33°45' W 118°12'0 0.0
2018-Sep-16 06:00N 33°45' W 118°12'0 0.0
2018-Sep-16 05:30N 33°45' W 118°12'0 0.0
2018-Sep-16 05:03N 33°45' W 118°12'0 0.1
2018-Sep-16 05:00N 33°45' W 118°12'0 0.0
2018-Sep-16 04:30N 33°45' W 118°12'0 0.0
2018-Sep-16 04:03N 33°45' W 118°12'0 0.0
2018-Sep-16 04:00N 33°45' W 118°12'0 0.0
2018-Sep-16 03:30N 33°45' W 118°12'0 0.0
2018-Sep-16 03:03N 33°45' W 118°12'0 0.0
2018-Sep-16 03:00N 33°45' W 118°12'0 0.0
2018-Sep-16 02:30N 33°45' W 118°12'0 0.0
2018-Sep-16 02:03N 33°45' W 118°12'0 0.1
2018-Sep-16 02:00N 33°45' W 118°12'0 0.0
2018-Sep-16 01:30N 33°45' W 118°12'0 0.0
2018-Sep-16 01:04N 33°45' W 118°12'0 0.1
2018-Sep-16 01:01N 33°45' W 118°12'0 0.0
2018-Sep-16 00:30N 33°45' W 118°12'0 0.0
2018-Sep-16 00:03N 33°45' W 118°12'0 0.0
2018-Sep-16 00:00N 33°45' W 118°12'0 0.0
2018-Sep-15 23:31N 33°45' W 118°12'0 0.0
2018-Sep-15 23:04N 33°45' W 118°12'0 0.0
2018-Sep-15 23:01N 33°45' W 118°12'0 0.0
2018-Sep-15 22:31N 33°45' W 118°12'0 0.0
2018-Sep-15 22:03N 33°45' W 118°12'0 0.0
2018-Sep-15 22:01N 33°45' W 118°12'0 0.0
2018-Sep-15 21:30N 33°45' W 118°12'0 0.0
2018-Sep-15 21:03N 33°45' W 118°12'0 0.1
2018-Sep-15 21:00N 33°45' W 118°12'0 0.0
2018-Sep-15 20:30N 33°45' W 118°12'0 0.0
2018-Sep-15 20:04N 33°45' W 118°12'0 0.0
2018-Sep-15 20:00N 33°45' W 118°12'0 0.0
2018-Sep-15 19:30N 33°45' W 118°12'0 0.0
2018-Sep-15 19:04N 33°45' W 118°12'0 0.0
2018-Sep-15 19:00N 33°45' W 118°12'0 0.0
2018-Sep-15 18:31N 33°45' W 118°12'0 0.0
2018-Sep-15 18:03N 33°45' W 118°12'0 0.0
2018-Sep-15 18:00N 33°45' W 118°12'0 0.0
2018-Sep-15 17:30N 33°45' W 118°12'0 0.0
2018-Sep-15 17:03N 33°45' W 118°12'0 0.0
2018-Sep-15 17:00N 33°45' W 118°12'0 0.0
2018-Sep-15 16:30N 33°45' W 118°12'0 0.0
2018-Sep-15 16:03N 33°45' W 118°12'0 0.0
2018-Sep-15 16:00N 33°45' W 118°12'0 0.0
2018-Sep-15 15:31N 33°45' W 118°12'0 0.0
2018-Sep-15 15:03N 33°45' W 118°12'0 0.0
2018-Sep-15 14:30N 33°45' W 118°12'0 0.0
2018-Sep-15 14:01N 33°45' W 118°12'0 0.0
2018-Sep-15 13:30N 33°45' W 118°12'0 0.0
2018-Sep-15 13:03N 33°45' W 118°12'0 0.1
2018-Sep-15 13:00N 33°45' W 118°12'0 0.0
2018-Sep-15 12:30N 33°45' W 118°12'0 0.0
2018-Sep-15 12:03N 33°45' W 118°12'0 0.0
2018-Sep-15 12:00N 33°45' W 118°12'0 0.0
2018-Sep-15 11:30N 33°45' W 118°12'0 0.0
2018-Sep-15 11:03N 33°45' W 118°12'0 0.0
2018-Sep-15 11:00N 33°45' W 118°12'0 0.0
2018-Sep-15 10:30N 33°45' W 118°12'0 0.0
2018-Sep-15 10:03N 33°45' W 118°12'0 0.0
2018-Sep-15 10:01N 33°45' W 118°12'0 0.0
2018-Sep-15 09:30N 33°45' W 118°12'0 0.0
2018-Sep-15 09:04N 33°45' W 118°12'0 0.0
2018-Sep-15 09:01N 33°45' W 118°12'0 0.0
2018-Sep-15 08:30N 33°45' W 118°12'0 0.0
2018-Sep-15 08:04N 33°45' W 118°12'0 0.0
2018-Sep-15 08:01N 33°45' W 118°12'0 0.0
2018-Sep-15 07:31N 33°45' W 118°12'0 0.0
2018-Sep-15 07:03N 33°45' W 118°12'0 0.0
2018-Sep-15 07:00N 33°45' W 118°12'0 0.0
2018-Sep-15 06:31N 33°45' W 118°12'0 0.0
2018-Sep-15 06:03N 33°45' W 118°12'0 0.0
2018-Sep-15 06:00N 33°45' W 118°12'0 0.0
2018-Sep-15 05:31N 33°45' W 118°12'0 0.0
2018-Sep-15 05:03N 33°45' W 118°12'0 0.0
2018-Sep-15 05:00N 33°45' W 118°12'0 0.0
2018-Sep-15 04:30N 33°45' W 118°12'0 0.0
2018-Sep-15 04:04N 33°45' W 118°12'0 0.0
2018-Sep-15 04:00N 33°45' W 118°12'0 0.0
2018-Sep-15 03:31N 33°45' W 118°12'0 0.0
2018-Sep-15 03:03N 33°45' W 118°12'0 0.0
2018-Sep-15 03:00N 33°45' W 118°12'0 0.0
2018-Sep-15 02:31N 33°45' W 118°12'0 0.0
2018-Sep-15 02:03N 33°45' W 118°12'0 0.0
2018-Sep-15 02:00N 33°45' W 118°12'0 0.0
2018-Sep-15 01:30N 33°45' W 118°12'0 0.0
2018-Sep-15 01:03N 33°45' W 118°12'0 0.0
2018-Sep-15 01:00N 33°45' W 118°12'0 0.0
2018-Sep-15 00:31N 33°45' W 118°12'0 0.0
2018-Sep-15 00:03N 33°45' W 118°12'0 0.0
2018-Sep-15 00:01N 33°45' W 118°12'0 0.0
2018-Sep-14 23:30N 33°45' W 118°12'1 2.9
2018-Sep-14 23:04N 33°45' W 118°11'0 8.8
2018-Sep-14 23:01N 33°45' W 118°11'0 0.5
2018-Sep-14 22:30N 33°46' W 118°11'0 0.0
2018-Sep-14 22:04N 33°46' W 118°11'0 0.0
2018-Sep-14 22:01N 33°46' W 118°11'2 3.2
2018-Sep-14 21:30N 33°45' W 118°12'0 0.2
2018-Sep-14 21:04N 33°45' W 118°12'0 0.0
2018-Sep-14 21:01N 33°45' W 118°12'3 5.1
2018-Sep-14 20:30N 33°44' W 118°09'0 0.9
2018-Sep-14 20:04N 33°45' W 118°10'0 0.0
2018-Sep-14 20:01N 33°45' W 118°10'2 4.3
2018-Sep-14 19:30N 33°45' W 118°12'0 0.1
2018-Sep-14 19:04N 33°45' W 118°12'0 5.2
2018-Sep-14 19:00N 33°44' W 118°12'2 2.2
2018-Sep-14 18:12N 33°46' W 118°11'0 0.3
2018-Sep-14 18:03N 33°46' W 118°11'0 0.0
2018-Sep-14 18:00N 33°46' W 118°11'0 0.0
2018-Sep-14 17:30N 33°46' W 118°11'0 0.2
2018-Sep-14 17:03N 33°46' W 118°11'0 6.6
2018-Sep-14 17:00N 33°45' W 118°10'1 2.2
2018-Sep-14 16:30N 33°45' W 118°09'1 2.0
2018-Sep-14 16:03N 33°44' W 118°10'0 8.4
2018-Sep-14 16:00N 33°44' W 118°11'2 3.0
2018-Sep-14 15:30N 33°45' W 118°12'0 0.0
2018-Sep-14 15:03N 33°45' W 118°12'0 0.1
2018-Sep-14 15:00N 33°45' W 118°12'0 0.0
2018-Sep-14 14:30N 33°45' W 118°12'0 0.0
2018-Sep-14 14:01N 33°45' W 118°12'0 0.0
2018-Sep-14 13:30N 33°45' W 118°12'0 0.0
2018-Sep-14 13:03N 33°45' W 118°12'0 0.0
2018-Sep-14 13:00N 33°45' W 118°12'0 0.0
2018-Sep-14 12:30N 33°45' W 118°12'0 0.0
2018-Sep-14 12:03N 33°45' W 118°12'0 0.1
2018-Sep-14 12:00N 33°45' W 118°12'0 0.0
2018-Sep-14 11:30N 33°45' W 118°12'0 0.0
2018-Sep-14 11:03N 33°45' W 118°12'0 0.0
2018-Sep-14 11:00N 33°45' W 118°12'0 0.0
2018-Sep-14 10:30N 33°45' W 118°12'0 0.0
2018-Sep-14 10:03N 33°45' W 118°12'0 0.1
2018-Sep-14 10:00N 33°45' W 118°12'0 0.0
2018-Sep-14 09:30N 33°45' W 118°12'0 0.0
2018-Sep-14 09:03N 33°45' W 118°12'0 0.1
2018-Sep-14 09:00N 33°45' W 118°12'0 0.0
2018-Sep-14 08:30N 33°45' W 118°12'0 0.0
2018-Sep-14 08:03N 33°45' W 118°12'0 0.0
2018-Sep-14 08:00N 33°45' W 118°12'0 0.0
2018-Sep-14 07:30N 33°45' W 118°12'0 0.0
2018-Sep-14 07:03N 33°45' W 118°12'0 0.0
2018-Sep-14 07:00N 33°45' W 118°12'0 0.0
2018-Sep-14 06:30N 33°45' W 118°12'0 0.0
2018-Sep-14 06:03N 33°45' W 118°12'0 0.0
2018-Sep-14 06:00N 33°45' W 118°12'0 0.0
2018-Sep-14 05:30N 33°45' W 118°12'0 0.0
2018-Sep-14 05:03N 33°45' W 118°12'0 0.0
2018-Sep-14 05:00N 33°45' W 118°12'0 0.0
2018-Sep-14 04:30N 33°45' W 118°12'0 0.0
2018-Sep-14 04:03N 33°45' W 118°12'0 0.1
2018-Sep-14 04:00N 33°45' W 118°12'0 0.0
2018-Sep-14 03:30N 33°45' W 118°12'0 0.0
2018-Sep-14 03:03N 33°45' W 118°12'0 0.1
2018-Sep-14 03:00N 33°45' W 118°12'0 0.0
2018-Sep-14 02:31N 33°45' W 118°12'0 0.0
2018-Sep-14 02:03N 33°45' W 118°12'0 0.0
2018-Sep-14 02:00N 33°45' W 118°12'0 0.0
2018-Sep-14 01:30N 33°45' W 118°12'0 0.0
2018-Sep-14 01:03N 33°45' W 118°12'0 0.1
2018-Sep-14 01:00N 33°45' W 118°12'1 2.1
2018-Sep-14 00:31N 33°44' W 118°11'2 3.5
2018-Sep-14 00:03N 33°45' W 118°10'0 0.0
2018-Sep-14 00:00N 33°45' W 118°10'0 0.0
2018-Sep-13 23:30N 33°45' W 118°10'0 0.0
2018-Sep-13 23:03N 33°45' W 118°10'0 0.0
2018-Sep-13 23:01N 33°45' W 118°10'1 2.8
2018-Sep-13 22:30N 33°46' W 118°11'1 2.0
2018-Sep-13 22:03N 33°45' W 118°10'0 7.8
2018-Sep-13 22:00N 33°45' W 118°10'0 0.3
2018-Sep-13 21:31N 33°45' W 118°10'1 3.1
2018-Sep-13 21:03N 33°46' W 118°11'0 0.0
2018-Sep-13 21:00N 33°46' W 118°11'0 0.1
2018-Sep-13 20:30N 33°46' W 118°11'1 3.0
2018-Sep-13 20:03N 33°45' W 118°10'0 0.1
2018-Sep-13 20:00N 33°45' W 118°10'0 0.0
2018-Sep-13 19:30N 33°45' W 118°10'1 3.1
2018-Sep-13 19:03N 33°46' W 118°11'0 0.0
2018-Sep-13 19:00N 33°46' W 118°11'0 0.0
2018-Sep-13 18:30N 33°46' W 118°11'1 3.0
2018-Sep-13 18:03N 33°44' W 118°11'0 7.3
2018-Sep-13 18:00N 33°44' W 118°11'1 2.7
2018-Sep-13 17:30N 33°45' W 118°12'0 0.0
2018-Sep-13 17:03N 33°45' W 118°12'0 0.0
2018-Sep-13 17:00N 33°45' W 118°12'0 0.0
2018-Sep-13 16:30N 33°45' W 118°12'0 0.0
2018-Sep-13 16:03N 33°45' W 118°12'0 0.0
2018-Sep-13 16:00N 33°45' W 118°12'0 0.0
2018-Sep-13 15:30N 33°45' W 118°12'0 0.0
2018-Sep-13 15:03N 33°45' W 118°12'0 0.0
2018-Sep-13 15:00N 33°45' W 118°12'0 0.0
2018-Sep-13 14:30N 33°45' W 118°12'0 0.0
2018-Sep-13 14:00N 33°45' W 118°12'0 0.0
2018-Sep-13 13:30N 33°45' W 118°12'0 0.0
2018-Sep-13 13:03N 33°45' W 118°12'0 0.0
2018-Sep-13 13:00N 33°45' W 118°12'0 0.0
2018-Sep-13 12:30N 33°45' W 118°12'0 0.0
2018-Sep-13 12:03N 33°45' W 118°12'0 0.1
2018-Sep-13 12:00N 33°45' W 118°12'0 0.0
2018-Sep-13 11:31N 33°45' W 118°12'0 0.0
2018-Sep-13 11:03N 33°45' W 118°12'0 0.0
2018-Sep-13 11:00N 33°45' W 118°12'0 0.0
2018-Sep-13 10:30N 33°45' W 118°12'0 0.0
2018-Sep-13 10:03N 33°45' W 118°12'0 0.0
2018-Sep-13 10:00N 33°45' W 118°12'0 0.0
2018-Sep-13 09:30N 33°45' W 118°12'0 0.0
2018-Sep-13 09:03N 33°45' W 118°12'0 0.0
2018-Sep-13 09:00N 33°45' W 118°12'0 0.0
2018-Sep-13 08:30N 33°45' W 118°12'0 0.0
2018-Sep-13 08:03N 33°45' W 118°12'0 0.0
2018-Sep-13 08:00N 33°45' W 118°12'0 0.0
2018-Sep-13 07:30N 33°45' W 118°12'0 0.0
2018-Sep-13 07:03N 33°45' W 118°12'0 0.1
2018-Sep-13 07:00N 33°45' W 118°12'0 0.0
2018-Sep-13 06:30N 33°45' W 118°12'0 0.0
2018-Sep-13 06:03N 33°45' W 118°12'0 0.0
2018-Sep-13 06:00N 33°45' W 118°12'0 0.0
2018-Sep-13 05:30N 33°45' W 118°12'0 0.0
2018-Sep-13 05:03N 33°45' W 118°12'0 0.0
2018-Sep-13 05:00N 33°45' W 118°12'0 0.0
2018-Sep-13 04:30N 33°45' W 118°12'0 0.0
2018-Sep-13 04:03N 33°45' W 118°12'0 0.0
2018-Sep-13 04:00N 33°45' W 118°12'0 0.0
2018-Sep-13 03:30N 33°45' W 118°12'0 0.0
2018-Sep-13 03:03N 33°45' W 118°12'0 0.1
2018-Sep-13 03:00N 33°45' W 118°12'0 0.0
2018-Sep-13 02:30N 33°45' W 118°12'0 0.0
2018-Sep-13 02:03N 33°45' W 118°12'0 0.0
2018-Sep-13 02:00N 33°45' W 118°12'0 0.0
2018-Sep-13 01:30N 33°45' W 118°12'0 0.0
2018-Sep-13 01:03N 33°45' W 118°12'0 0.1
2018-Sep-13 01:00N 33°45' W 118°12'0 0.6
2018-Sep-13 00:30N 33°44' W 118°12'2 4.9
2018-Sep-13 00:03N 33°45' W 118°10'0 0.0
2018-Sep-13 00:00N 33°45' W 118°10'0 0.6
2018-Sep-12 23:30N 33°45' W 118°10'0 0.6
2018-Sep-12 23:03N 33°45' W 118°10'0 0.1
2018-Sep-12 23:00N 33°45' W 118°10'1 1.9
2018-Sep-12 22:30N 33°44' W 118°09'1 2.1
2018-Sep-12 22:03N 33°45' W 118°10'0 0.1
2018-Sep-12 22:01N 33°45' W 118°10'1 2.1
2018-Sep-12 21:30N 33°44' W 118°08'1 2.2
2018-Sep-12 21:02N 33°45' W 118°10'0 0.0
2018-Sep-12 21:00N 33°45' W 118°10'0 0.0
2018-Sep-12 20:30N 33°45' W 118°10'1 2.3
2018-Sep-12 20:03N 33°44' W 118°08'0 0.0
2018-Sep-12 20:00N 33°44' W 118°08'0 0.0
2018-Sep-12 19:30N 33°44' W 118°08'0 1.1
2018-Sep-12 19:03N 33°45' W 118°09'0 8.2
2018-Sep-12 19:00N 33°45' W 118°09'0 0.9
2018-Sep-12 18:30N 33°45' W 118°10'0 0.0
2018-Sep-12 18:03N 33°45' W 118°10'0 0.1
2018-Sep-12 18:00N 33°45' W 118°10'0 0.0
2018-Sep-12 17:30N 33°45' W 118°10'1 3.1
2018-Sep-12 17:03N 33°46' W 118°11'0 0.0
2018-Sep-12 17:00N 33°46' W 118°11'0 0.0
2018-Sep-12 16:30N 33°46' W 118°11'0 0.0
2018-Sep-12 16:03N 33°46' W 118°11'0 0.0
2018-Sep-12 16:00N 33°46' W 118°11'2 3.7
2018-Sep-12 15:30N 33°44' W 118°12'1 1.4
2018-Sep-12 15:03N 33°45' W 118°12'0 0.1
2018-Sep-12 15:00N 33°45' W 118°12'0 0.1
2018-Sep-12 14:03N 33°45' W 118°12'0 0.0
2018-Sep-12 14:00N 33°45' W 118°12'0 0.0
2018-Sep-12 13:30N 33°45' W 118°12'0 0.0
2018-Sep-12 13:03N 33°45' W 118°12'0 0.0
2018-Sep-12 13:00N 33°45' W 118°12'0 0.0
2018-Sep-12 12:30N 33°45' W 118°12'0 0.0
2018-Sep-12 12:03N 33°45' W 118°12'0 0.0
2018-Sep-12 12:00N 33°45' W 118°12'0 0.0
2018-Sep-12 11:30N 33°45' W 118°12'0 0.0
2018-Sep-12 11:03N 33°45' W 118°12'0 0.0
2018-Sep-12 11:00N 33°45' W 118°12'0 0.0
2018-Sep-12 10:30N 33°45' W 118°12'0 0.0
2018-Sep-12 10:03N 33°45' W 118°12'0 0.0
2018-Sep-12 10:00N 33°45' W 118°12'0 0.0
2018-Sep-12 09:30N 33°45' W 118°12'0 0.0
2018-Sep-12 09:03N 33°45' W 118°12'0 0.1
2018-Sep-12 09:00N 33°45' W 118°12'0 0.0
2018-Sep-12 08:30N 33°45' W 118°12'0 0.0
2018-Sep-12 08:03N 33°45' W 118°12'0 0.0
2018-Sep-12 08:00N 33°45' W 118°12'0 0.0
2018-Sep-12 07:30N 33°45' W 118°12'0 0.0
2018-Sep-12 07:03N 33°45' W 118°12'0 0.0
2018-Sep-12 07:00N 33°45' W 118°12'0 0.0
2018-Sep-12 06:30N 33°45' W 118°12'0 0.0
2018-Sep-12 06:03N 33°45' W 118°12'0 0.0
2018-Sep-12 06:00N 33°45' W 118°12'0 0.0
2018-Sep-12 05:30N 33°45' W 118°12'0 0.0
2018-Sep-12 05:03N 33°45' W 118°12'0 0.0
2018-Sep-12 05:00N 33°45' W 118°12'0 0.0
2018-Sep-12 04:30N 33°45' W 118°12'0 0.0
2018-Sep-12 04:03N 33°45' W 118°12'0 0.0
2018-Sep-12 04:00N 33°45' W 118°12'0 0.0
2018-Sep-12 03:30N 33°45' W 118°12'0 0.0
2018-Sep-12 03:03N 33°45' W 118°12'0 0.0
2018-Sep-12 03:00N 33°45' W 118°12'0 0.0
2018-Sep-12 02:30N 33°45' W 118°12'0 0.0
2018-Sep-12 02:03N 33°45' W 118°12'0 0.0
2018-Sep-12 02:00N 33°45' W 118°12'0 0.0
2018-Sep-12 01:30N 33°45' W 118°12'0 0.0
2018-Sep-12 01:03N 33°45' W 118°12'0 0.0
2018-Sep-12 01:00N 33°45' W 118°12'2 3.1
2018-Sep-12 00:30N 33°46' W 118°11'1 2.7
2018-Sep-12 00:03N 33°45' W 118°10'0 8.3
2018-Sep-12 00:00N 33°45' W 118°10'1 1.6
2018-Sep-11 23:30N 33°46' W 118°11'1 2.8
2018-Sep-11 23:03N 33°44' W 118°11'0 8.1
2018-Sep-11 23:00N 33°44' W 118°11'1 2.6
2018-Sep-11 22:30N 33°45' W 118°12'0 0.1
2018-Sep-11 22:03N 33°45' W 118°12'0 0.0
2018-Sep-11 22:00N 33°45' W 118°12'0 0.0
2018-Sep-11 21:30N 33°45' W 118°12'0 0.0
2018-Sep-11 21:03N 33°45' W 118°12'0 0.2
2018-Sep-11 21:00N 33°45' W 118°12'1 2.8
2018-Sep-11 20:30N 33°44' W 118°11'1 2.1
2018-Sep-11 20:03N 33°45' W 118°10'0 0.0
2018-Sep-11 20:00N 33°45' W 118°10'0 0.0
2018-Sep-11 19:30N 33°45' W 118°10'0 0.0
2018-Sep-11 19:04N 33°45' W 118°10'0 0.1
2018-Sep-11 19:00N 33°45' W 118°10'1 1.2
2018-Sep-11 18:30N 33°45' W 118°10'0 0.0
2018-Sep-11 18:03N 33°45' W 118°10'0 0.0
2018-Sep-11 18:00N 33°45' W 118°10'0 0.2
2018-Sep-11 17:30N 33°45' W 118°10'1 1.4
2018-Sep-11 17:03N 33°45' W 118°10'0 0.0
2018-Sep-11 17:00N 33°45' W 118°10'0 0.0
2018-Sep-11 16:30N 33°45' W 118°10'1 1.4
2018-Sep-11 16:03N 33°45' W 118°09'0 9.4
2018-Sep-11 16:00N 33°44' W 118°08'2 3.6
2018-Sep-11 15:30N 33°44' W 118°11'2 3.5
2018-Sep-11 15:03N 33°45' W 118°12'0 0.0
2018-Sep-11 15:00N 33°45' W 118°12'0 0.1
2018-Sep-11 14:30N 33°45' W 118°12'0 0.0
2018-Sep-11 13:59N 33°45' W 118°12'0 0.0
2018-Sep-11 13:30N 33°45' W 118°12'0 0.0
2018-Sep-11 13:03N 33°45' W 118°12'0 0.0
2018-Sep-11 13:00N 33°45' W 118°12'0 0.0
2018-Sep-11 12:30N 33°45' W 118°12'0 0.0
2018-Sep-11 12:03N 33°45' W 118°12'0 0.0
2018-Sep-11 12:00N 33°45' W 118°12'0 0.0
2018-Sep-11 11:30N 33°45' W 118°12'0 0.0
2018-Sep-11 11:03N 33°45' W 118°12'0 0.0
2018-Sep-11 11:00N 33°45' W 118°12'0 0.0
2018-Sep-11 10:30N 33°45' W 118°12'0 0.0
2018-Sep-11 10:03N 33°45' W 118°12'0 0.0
2018-Sep-11 10:00N 33°45' W 118°12'0 0.0
2018-Sep-11 09:30N 33°45' W 118°12'0 0.0
2018-Sep-11 09:03N 33°45' W 118°12'0 0.0
2018-Sep-11 09:00N 33°45' W 118°12'0 0.0
2018-Sep-11 08:30N 33°45' W 118°12'0 0.0
2018-Sep-11 08:03N 33°45' W 118°12'0 0.0
2018-Sep-11 08:00N 33°45' W 118°12'0 0.0
2018-Sep-11 07:30N 33°45' W 118°12'0 0.0
2018-Sep-11 07:03N 33°45' W 118°12'0 0.0
2018-Sep-11 07:00N 33°45' W 118°12'0 0.0
2018-Sep-11 06:30N 33°45' W 118°12'0 0.0
2018-Sep-11 06:03N 33°45' W 118°12'0 0.0
2018-Sep-11 06:00N 33°45' W 118°12'0 0.0
2018-Sep-11 05:30N 33°45' W 118°12'0 0.0
2018-Sep-11 05:03N 33°45' W 118°12'0 0.0
2018-Sep-11 05:00N 33°45' W 118°12'0 0.0
2018-Sep-11 04:30N 33°45' W 118°12'0 0.0
2018-Sep-11 04:03N 33°45' W 118°12'0 0.0
2018-Sep-11 04:00N 33°45' W 118°12'0 0.0
2018-Sep-11 03:30N 33°45' W 118°12'0 0.0
2018-Sep-11 03:03N 33°45' W 118°12'0 0.0
2018-Sep-11 03:00N 33°45' W 118°12'0 0.0
2018-Sep-11 02:30N 33°45' W 118°12'0 0.0
2018-Sep-11 02:03N 33°45' W 118°12'0 0.0
2018-Sep-11 02:00N 33°45' W 118°12'0 0.0
2018-Sep-11 01:30N 33°45' W 118°12'0 0.0
2018-Sep-11 01:03N 33°45' W 118°12'0 0.0
2018-Sep-11 01:00N 33°45' W 118°12'0 0.0
2018-Sep-11 00:30N 33°45' W 118°12'1 3.1
2018-Sep-11 00:03N 33°44' W 118°11'0 8.8
2018-Sep-11 00:00N 33°44' W 118°10'1 1.5
2018-Sep-10 23:30N 33°45' W 118°10'1 2.4
2018-Sep-10 23:03N 33°44' W 118°08'0 1.2
2018-Sep-10 23:00N 33°44' W 118°08'0 0.3
2018-Sep-10 22:30N 33°44' W 118°09'1 1.3
2018-Sep-10 22:03N 33°45' W 118°09'0 7.1
2018-Sep-10 22:00N 33°45' W 118°09'1 2.6
2018-Sep-10 21:30N 33°46' W 118°11'0 0.0
2018-Sep-10 21:03N 33°46' W 118°11'0 0.0
2018-Sep-10 21:00N 33°46' W 118°11'0 0.0
2018-Sep-10 20:30N 33°46' W 118°11'2 4.1
2018-Sep-10 20:03N 33°44' W 118°12'0 6.9
2018-Sep-10 20:00N 33°45' W 118°12'0 0.1
2018-Sep-10 19:30N 33°45' W 118°12'0 0.0
2018-Sep-10 19:03N 33°45' W 118°12'0 0.0
2018-Sep-10 19:00N 33°45' W 118°12'0 0.7
2018-Sep-10 18:30N 33°44' W 118°12'2 4.1
2018-Sep-10 18:03N 33°46' W 118°11'0 0.1
2018-Sep-10 18:00N 33°46' W 118°11'0 0.1
2018-Sep-10 17:30N 33°46' W 118°11'0 0.7
2018-Sep-10 17:03N 33°45' W 118°10'0 1.0
2018-Sep-10 17:00N 33°45' W 118°11'1 1.5
2018-Sep-10 16:30N 33°45' W 118°10'1 2.5
2018-Sep-10 16:03N 33°44' W 118°09'0 6.3
2018-Sep-10 16:00N 33°44' W 118°09'3 5.5
2018-Sep-10 15:30N 33°45' W 118°12'0 0.0
2018-Sep-10 15:03N 33°45' W 118°12'0 0.0
2018-Sep-10 15:00N 33°45' W 118°12'0 0.0
2018-Sep-10 14:30N 33°45' W 118°12'0 0.0
2018-Sep-10 14:00N 33°45' W 118°12'0 0.0
2018-Sep-10 13:30N 33°45' W 118°12'0 0.0
2018-Sep-10 13:04N 33°45' W 118°12'0 0.0
2018-Sep-10 13:00N 33°45' W 118°12'0 0.0
2018-Sep-10 12:30N 33°45' W 118°12'0 0.0
2018-Sep-10 12:03N 33°45' W 118°12'0 0.0
2018-Sep-10 12:00N 33°45' W 118°12'0 0.0
2018-Sep-10 11:30N 33°45' W 118°12'0 0.0
2018-Sep-10 11:03N 33°45' W 118°12'0 0.0
2018-Sep-10 11:00N 33°45' W 118°12'0 0.0
2018-Sep-10 10:30N 33°45' W 118°12'0 0.0
2018-Sep-10 10:03N 33°45' W 118°12'0 0.0
2018-Sep-10 10:00N 33°45' W 118°12'0 0.0
2018-Sep-10 09:30N 33°45' W 118°12'0 0.0
2018-Sep-10 09:03N 33°45' W 118°12'0 0.0
2018-Sep-10 09:00N 33°45' W 118°12'0 0.0
2018-Sep-10 08:30N 33°45' W 118°12'0 0.0
2018-Sep-10 08:03N 33°45' W 118°12'0 0.0
2018-Sep-10 08:00N 33°45' W 118°12'0 0.0
2018-Sep-10 07:31N 33°45' W 118°12'0 0.0
2018-Sep-10 07:03N 33°45' W 118°12'0 0.0
2018-Sep-10 07:00N 33°45' W 118°12'0 0.0
2018-Sep-10 06:30N 33°45' W 118°12'0 0.0
2018-Sep-10 06:03N 33°45' W 118°12'0 0.0
2018-Sep-10 06:00N 33°45' W 118°12'0 0.0
2018-Sep-10 05:30N 33°45' W 118°12'0 0.0
2018-Sep-10 05:03N 33°45' W 118°12'0 0.0
2018-Sep-10 05:00N 33°45' W 118°12'0 0.0
2018-Sep-10 04:30N 33°45' W 118°12'0 0.0
2018-Sep-10 04:03N 33°45' W 118°12'0 0.0
2018-Sep-10 04:00N 33°45' W 118°12'0 0.0
2018-Sep-10 03:30N 33°45' W 118°12'0 0.0
2018-Sep-10 03:03N 33°45' W 118°12'0 0.0
2018-Sep-10 03:00N 33°45' W 118°12'0 0.0
2018-Sep-10 02:30N 33°45' W 118°12'0 0.0
2018-Sep-10 02:03N 33°45' W 118°12'0 0.0
2018-Sep-10 02:00N 33°45' W 118°12'0 0.0
2018-Sep-10 01:30N 33°45' W 118°12'0 0.0
2018-Sep-10 01:03N 33°45' W 118°12'0 0.0
2018-Sep-10 01:00N 33°45' W 118°12'0 0.0
2018-Sep-10 00:30N 33°45' W 118°12'0 0.0
2018-Sep-10 00:03N 33°45' W 118°12'0 0.0
2018-Sep-10 00:00N 33°45' W 118°12'0 0.0
2018-Sep-09 23:30N 33°45' W 118°12'0 0.0
2018-Sep-09 23:04N 33°45' W 118°12'0 0.0
2018-Sep-09 23:00N 33°45' W 118°12'0 0.0
2018-Sep-09 22:30N 33°45' W 118°12'0 0.0
2018-Sep-09 22:03N 33°45' W 118°12'0 0.1
2018-Sep-09 22:00N 33°45' W 118°12'0 0.0
2018-Sep-09 21:30N 33°45' W 118°12'0 0.0
2018-Sep-09 21:03N 33°45' W 118°12'0 0.0
2018-Sep-09 21:00N 33°45' W 118°12'0 0.0
2018-Sep-09 20:30N 33°45' W 118°12'0 0.0
2018-Sep-09 20:03N 33°45' W 118°12'0 0.0
2018-Sep-09 20:00N 33°45' W 118°12'0 0.0
2018-Sep-09 19:30N 33°45' W 118°12'0 0.0
2018-Sep-09 19:03N 33°45' W 118°12'0 0.0
2018-Sep-09 19:00N 33°45' W 118°12'  

Dump ship's entire track history